Dirección General De Aeronáutica Civil

Dirección Meteorológica de Chile - Servicios Climáticos

Informe General de Control de Calidad de la Estación

Listado de niveles de control de calidad para algunos parámetros
Estación Colina (330083)
Fecha de Revisión de los datos :

Elementos

Registros Niveles de Control Total
Nivel 0 Nivel 1 Nivel 2 Nivel 3 Errores Porcentaje
01 Temperatura del Aire Seco 21.319 0 . 0 . 0 . 0 . 0 0.00 %
02 Humedad Relativa del Aire 1.955 0 . 0 . 0 . 0 . 0 0.00 %
03 Temperatura Máxima PM 7.478 0 . 0 . 471 6.30 % 0 . 471 6.30 %
04 Temperatura Mínima AM 7.456 0 . 0 . 12 0.16 % 0 . 12 0.16 %
05 Viento a 10 m. de Altura 18.617 0 . 18 0.10 % 0 . 0 . 18 0.10 %

Totales

56.825 . 0.0000 % . 0.0317 % . 0.8500 % . 0.0000 % 501 0.8817 %

Detalle de Errores Encontrados

Nivel Fecha del Dato Descripción Información Error Fecha Ingreso
1 2007-01-22 00:00:00 No se informa intensidad del Viento (ff) , pero si una dirección 2023-12-29 01:47:00
1 2009-01-22 12:00:00 No se informa dirección del Viento (dd), pero si una fuerza y el viento no es variable 2023-12-29 01:50:00
1 2009-01-23 12:00:00 No se informa dirección del Viento (dd), pero si una fuerza y el viento no es variable 2023-12-29 01:50:00
1 2009-01-24 12:00:00 No se informa dirección del Viento (dd), pero si una fuerza y el viento no es variable 2023-12-29 01:50:00
1 2009-01-25 12:00:00 No se informa dirección del Viento (dd), pero si una fuerza y el viento no es variable 2023-12-29 01:50:00
1 2009-01-31 12:00:00 No se informa dirección del Viento (dd), pero si una fuerza y el viento no es variable 2023-12-29 01:50:00
1 2009-02-01 12:00:00 No se informa dirección del Viento (dd), pero si una fuerza y el viento no es variable 2023-12-29 01:50:00
1 2009-02-06 12:00:00 No se informa dirección del Viento (dd), pero si una fuerza y el viento no es variable 2023-12-29 01:50:00
1 2009-02-06 18:00:00 No se informa dirección del Viento (dd), pero si una fuerza y el viento no es variable 2023-12-29 01:50:00
1 2009-02-07 12:00:00 No se informa dirección del Viento (dd), pero si una fuerza y el viento no es variable 2023-12-29 01:50:00
1 2009-02-08 00:00:00 No se informa dirección del Viento (dd), pero si una fuerza y el viento no es variable 2023-12-29 01:50:00
1 2009-02-08 12:00:00 No se informa dirección del Viento (dd), pero si una fuerza y el viento no es variable 2023-12-29 01:50:00
1 2009-02-22 12:00:00 No se informa dirección del Viento (dd), pero si una fuerza y el viento no es variable 2023-12-29 01:50:00
1 2009-02-28 12:00:00 No se informa dirección del Viento (dd), pero si una fuerza y el viento no es variable 2023-12-29 01:50:00
1 2009-03-01 12:00:00 No se informa dirección del Viento (dd), pero si una fuerza y el viento no es variable 2023-12-29 01:50:00
1 2009-04-04 12:00:00 No se informa dirección del Viento (dd), pero si una fuerza y el viento no es variable 2023-12-29 01:50:00
1 2009-04-05 12:00:00 No se informa dirección del Viento (dd), pero si una fuerza y el viento no es variable 2023-12-29 01:50:00
1 2012-09-10 00:00:00 No se informa intensidad del Viento (ff) , pero si una dirección 2014-12-12 18:00:00
Errores del Nivel 18
Nivel Fecha del Dato Descripción Información Error Fecha Ingreso
2 1992-07-20 12:00:00 Temperatura 0.2 del 20-07-1992 12:00, Menor que la Mínima 0.4 20-07-1992 12:00 0.2 -- 0.4 2023-12-29 01:29:00
2 2000-08-10 12:00:00 Temperatura 2.1 del 10-08-2000 12:00, Menor que la Mínima 2.4 10-08-2000 12:00 2.1 -- 2.4 2023-12-29 01:39:00
2 2003-06-06 12:00:00 Temperatura 9.4 del 06-06-2003 12:00, Menor que la Mínima 9.9 06-06-2003 12:00 9.4 -- 9.9 2023-12-29 01:43:00
2 2003-07-13 12:00:00 Temperatura 6.4 del 13-07-2003 12:00, Menor que la Mínima 7.2 13-07-2003 12:00 6.4 -- 7.2 2023-12-29 01:43:00
2 2004-12-27 12:00:00 Temperatura 15.8 del 27-12-2004 12:00, Menor que la Mínima 20.6 27-12-2004 12:00 15.8 -- 20.6 2023-12-29 01:45:00
2 2011-09-02 12:00:00 Temperatura 1.6 del 02-09-2011 12:00, Menor que la Mínima 3.8 02-09-2011 12:00 1.6 -- 3.8 2014-10-23 17:04:00
2 2012-06-09 12:00:00 Temperatura 1.7 del 09-06-2012 12:00, Menor que la Mínima 2.2 09-06-2012 12:00 1.7 -- 2.2 2014-12-11 19:49:00
2 2012-06-10 12:00:00 Temperatura 1.8 del 10-06-2012 12:00, Menor que la Mínima 3.0 10-06-2012 12:00 1.8 -- 3.0 2014-12-11 20:22:00
2 2012-06-21 12:00:00 Temperatura 1.7 del 21-06-2012 12:00, Menor que la Mínima 2.0 21-06-2012 12:00 1.7 -- 2.0 2014-12-11 20:22:00
2 2012-06-22 12:00:00 Temperatura 1.2 del 22-06-2012 12:00, Menor que la Mínima 2.0 22-06-2012 12:00 1.2 -- 2.0 2014-12-12 12:14:00
2 2012-07-06 12:00:00 Temperatura -0.3 del 06-07-2012 12:00, Menor que la Mínima -0.2 06-07-2012 12:00 -0.3 -- -0.2 2014-12-12 13:57:00
2 2012-07-13 12:00:00 Temperatura -9.8 del 13-07-2012 12:00, Menor que la Mínima -7.4 13-07-2012 12:00 -9.8 -- -7.4 2014-12-12 13:57:00
2 2000-03-07 00:00:00 Temperatura 29.4 del 06-03-2000 18:00, Mayor que la Máxima 29.2 07-03-2000 00:00 29.4 -- 29.2 2023-12-29 01:39:00
2 2000-09-27 00:00:00 Temperatura 29.6 del 26-09-2000 18:00, Mayor que la Máxima 28.2 27-09-2000 00:00 29.6 -- 28.2 2023-12-29 01:40:00
2 2001-08-17 00:00:00 Temperatura 10.3 del 16-08-2001 18:00, Mayor que la Máxima 10.1 17-08-2001 00:00 10.3 -- 10.1 2023-12-29 01:41:00
2 2004-04-21 00:00:00 Temperatura 18.6 del 20-04-2004 18:00, Mayor que la Máxima 16.8 21-04-2004 00:00 18.6 -- 16.8 2023-12-29 01:44:00
2 2006-01-19 00:00:00 Temperatura 28.6 del 19-01-2006 00:00, Mayor que la Máxima 27.9 19-01-2006 00:00 28.6 -- 27.9 2023-12-29 01:46:00
2 2009-01-15 00:00:00 Temperatura 30.1 del 14-01-2009 18:00, Mayor que la Máxima 27.2 15-01-2009 00:00 30.1 -- 27.2 2023-12-29 01:50:00
2 2011-06-30 00:00:00 Temperatura 10.5 del 30-06-2011 00:00, Mayor que la Máxima 10.4 30-06-2011 00:00 10.5 -- 10.4 2023-11-13 02:56:00
2 2011-09-02 00:00:00 Temperatura 23.6 del 01-09-2011 18:00, Mayor que la Máxima 22.4 02-09-2011 00:00 23.6 -- 22.4 2014-10-23 15:33:00
2 2011-09-03 00:00:00 Temperatura 19.9 del 02-09-2011 18:00, Mayor que la Máxima 17.2 03-09-2011 00:00 19.9 -- 17.2 2014-10-23 15:33:00
2 2011-09-04 00:00:00 Temperatura 18.6 del 03-09-2011 18:00, Mayor que la Máxima 16.2 04-09-2011 00:00 18.6 -- 16.2 2014-10-23 15:33:00
2 2011-09-05 00:00:00 Temperatura 16.9 del 04-09-2011 18:00, Mayor que la Máxima 14.7 05-09-2011 00:00 16.9 -- 14.7 2014-10-23 15:33:00
2 2011-09-06 00:00:00 Temperatura 18.9 del 05-09-2011 18:00, Mayor que la Máxima 17.4 06-09-2011 00:00 18.9 -- 17.4 2014-10-23 15:33:00
2 2011-09-07 00:00:00 Temperatura 20.8 del 06-09-2011 18:00, Mayor que la Máxima 18.6 07-09-2011 00:00 20.8 -- 18.6 2014-10-23 15:33:00
2 2011-09-08 00:00:00 Temperatura 19.6 del 07-09-2011 18:00, Mayor que la Máxima 17.4 08-09-2011 00:00 19.6 -- 17.4 2014-10-23 15:33:00
2 2011-09-09 00:00:00 Temperatura 19.7 del 08-09-2011 18:00, Mayor que la Máxima 18.2 09-09-2011 00:00 19.7 -- 18.2 2014-10-23 15:33:00
2 2011-09-10 00:00:00 Temperatura 20.8 del 09-09-2011 18:00, Mayor que la Máxima 19.6 10-09-2011 00:00 20.8 -- 19.6 2014-10-23 15:33:00
2 2011-09-11 00:00:00 Temperatura 23.8 del 10-09-2011 18:00, Mayor que la Máxima 22.0 11-09-2011 00:00 23.8 -- 22.0 2014-10-23 15:33:00
2 2011-09-12 00:00:00 Temperatura 26.7 del 11-09-2011 18:00, Mayor que la Máxima 25.9 12-09-2011 00:00 26.7 -- 25.9 2014-10-23 15:33:00
2 2011-09-13 00:00:00 Temperatura 28.7 del 12-09-2011 18:00, Mayor que la Máxima 27.6 13-09-2011 00:00 28.7 -- 27.6 2014-10-23 15:33:00
2 2011-09-14 00:00:00 Temperatura 28.8 del 13-09-2011 18:00, Mayor que la Máxima 27.5 14-09-2011 00:00 28.8 -- 27.5 2014-10-23 15:33:00
2 2011-09-15 00:00:00 Temperatura 22.8 del 14-09-2011 18:00, Mayor que la Máxima 21.2 15-09-2011 00:00 22.8 -- 21.2 2014-10-23 15:33:00
2 2011-09-16 00:00:00 Temperatura 28.6 del 15-09-2011 18:00, Mayor que la Máxima 23.6 16-09-2011 00:00 28.6 -- 23.6 2014-10-23 15:33:00
2 2011-09-17 00:00:00 Temperatura 19.6 del 16-09-2011 18:00, Mayor que la Máxima 17.2 17-09-2011 00:00 19.6 -- 17.2 2014-10-23 15:33:00
2 2011-09-18 00:00:00 Temperatura 23.6 del 17-09-2011 18:00, Mayor que la Máxima 21.4 18-09-2011 00:00 23.6 -- 21.4 2014-10-23 15:33:00
2 2011-09-19 00:00:00 Temperatura 24.8 del 18-09-2011 18:00, Mayor que la Máxima 22.6 19-09-2011 00:00 24.8 -- 22.6 2014-10-23 15:33:00
2 2011-09-20 00:00:00 Temperatura 26.8 del 19-09-2011 18:00, Mayor que la Máxima 24.2 20-09-2011 00:00 26.8 -- 24.2 2014-10-23 15:34:00
2 2011-09-22 00:00:00 Temperatura 26.7 del 21-09-2011 18:00, Mayor que la Máxima 25.2 22-09-2011 00:00 26.7 -- 25.2 2014-10-23 15:34:00
2 2011-09-23 00:00:00 Temperatura 22.7 del 22-09-2011 18:00, Mayor que la Máxima 20.3 23-09-2011 00:00 22.7 -- 20.3 2014-10-23 15:34:00
2 2011-09-24 00:00:00 Temperatura 27.8 del 23-09-2011 18:00, Mayor que la Máxima 26.6 24-09-2011 00:00 27.8 -- 26.6 2014-10-23 16:06:00
2 2011-09-25 00:00:00 Temperatura 28.9 del 24-09-2011 18:00, Mayor que la Máxima 26.2 25-09-2011 00:00 28.9 -- 26.2 2014-10-23 16:06:00
2 2011-09-27 00:00:00 Temperatura 30.6 del 26-09-2011 18:00, Mayor que la Máxima 29.2 27-09-2011 00:00 30.6 -- 29.2 2014-10-23 16:06:00
2 2011-09-28 00:00:00 Temperatura 30.7 del 27-09-2011 18:00, Mayor que la Máxima 29.6 28-09-2011 00:00 30.7 -- 29.6 2014-10-23 16:06:00
2 2011-09-29 00:00:00 Temperatura 26.8 del 28-09-2011 18:00, Mayor que la Máxima 24.1 29-09-2011 00:00 26.8 -- 24.1 2014-10-23 16:06:00
2 2011-09-30 00:00:00 Temperatura 25.7 del 29-09-2011 18:00, Mayor que la Máxima 23.6 30-09-2011 00:00 25.7 -- 23.6 2014-10-23 16:06:00
2 2011-10-01 00:00:00 Temperatura 27.6 del 30-09-2011 18:00, Mayor que la Máxima 25.0 01-10-2011 00:00 27.6 -- 25.0 2014-10-23 16:06:00
2 2011-10-02 00:00:00 Temperatura 24.6 del 01-10-2011 18:00, Mayor que la Máxima 22.4 02-10-2011 00:00 24.6 -- 22.4 2014-10-23 17:28:00
2 2011-10-03 00:00:00 Temperatura 29.9 del 02-10-2011 18:00, Mayor que la Máxima 27.4 03-10-2011 00:00 29.9 -- 27.4 2014-10-23 17:28:00
2 2011-10-04 00:00:00 Temperatura 22.7 del 03-10-2011 18:00, Mayor que la Máxima 20.3 04-10-2011 00:00 22.7 -- 20.3 2014-10-23 17:28:00
2 2011-10-05 00:00:00 Temperatura 23.8 del 04-10-2011 18:00, Mayor que la Máxima 21.6 05-10-2011 00:00 23.8 -- 21.6 2014-10-23 17:24:00
2 2011-10-06 00:00:00 Temperatura 24.6 del 05-10-2011 18:00, Mayor que la Máxima 22.2 06-10-2011 00:00 24.6 -- 22.2 2014-10-23 17:58:00
2 2011-10-07 00:00:00 Temperatura 19.6 del 06-10-2011 18:00, Mayor que la Máxima 17.2 07-10-2011 00:00 19.6 -- 17.2 2014-10-23 17:58:00
2 2011-10-09 00:00:00 Temperatura 19.8 del 08-10-2011 18:00, Mayor que la Máxima 17.4 09-10-2011 00:00 19.8 -- 17.4 2014-10-23 17:58:00
2 2011-10-10 00:00:00 Temperatura 25.9 del 09-10-2011 18:00, Mayor que la Máxima 23.3 10-10-2011 00:00 25.9 -- 23.3 2014-10-23 17:58:00
2 2011-10-11 00:00:00 Temperatura 19.9 del 10-10-2011 18:00, Mayor que la Máxima 18.2 11-10-2011 00:00 19.9 -- 18.2 2014-10-23 17:58:00
2 2011-10-12 00:00:00 Temperatura 19.8 del 11-10-2011 18:00, Mayor que la Máxima 17.2 12-10-2011 00:00 19.8 -- 17.2 2014-10-23 17:58:00
2 2011-10-13 00:00:00 Temperatura 19.8 del 12-10-2011 18:00, Mayor que la Máxima 17.2 13-10-2011 00:00 19.8 -- 17.2 2014-10-23 17:58:00
2 2011-10-14 00:00:00 Temperatura 19.6 del 13-10-2011 18:00, Mayor que la Máxima 17.4 14-10-2011 00:00 19.6 -- 17.4 2014-10-23 17:58:00
2 2011-10-15 00:00:00 Temperatura 18.8 del 14-10-2011 18:00, Mayor que la Máxima 16.2 15-10-2011 00:00 18.8 -- 16.2 2014-10-23 17:58:00
2 2011-10-16 00:00:00 Temperatura 23.8 del 15-10-2011 18:00, Mayor que la Máxima 21.4 16-10-2011 00:00 23.8 -- 21.4 2014-10-23 18:30:00
2 2011-10-17 00:00:00 Temperatura 25.8 del 16-10-2011 18:00, Mayor que la Máxima 23.8 17-10-2011 00:00 25.8 -- 23.8 2014-10-23 18:30:00
2 2011-10-18 00:00:00 Temperatura 25.9 del 17-10-2011 18:00, Mayor que la Máxima 23.6 18-10-2011 00:00 25.9 -- 23.6 2014-10-23 18:30:00
2 2011-10-19 00:00:00 Temperatura 27.8 del 18-10-2011 18:00, Mayor que la Máxima 25.1 19-10-2011 00:00 27.8 -- 25.1 2014-10-23 18:30:00
2 2011-10-20 00:00:00 Temperatura 31.6 del 19-10-2011 18:00, Mayor que la Máxima 29.2 20-10-2011 00:00 31.6 -- 29.2 2014-10-23 18:30:00
2 2011-10-21 00:00:00 Temperatura 30.6 del 20-10-2011 18:00, Mayor que la Máxima 20.7 21-10-2011 00:00 30.6 -- 20.7 2014-10-23 18:30:00
2 2011-10-22 00:00:00 Temperatura 28.4 del 21-10-2011 18:00, Mayor que la Máxima 26.2 22-10-2011 00:00 28.4 -- 26.2 2014-10-23 18:30:00
2 2011-10-23 00:00:00 Temperatura 28.9 del 22-10-2011 18:00, Mayor que la Máxima 26.0 23-10-2011 00:00 28.9 -- 26.0 2014-10-23 18:30:00
2 2011-10-24 00:00:00 Temperatura 26.8 del 23-10-2011 18:00, Mayor que la Máxima 24.5 24-10-2011 00:00 26.8 -- 24.5 2014-10-23 18:30:00
2 2011-10-25 00:00:00 Temperatura 25.9 del 24-10-2011 18:00, Mayor que la Máxima 23.5 25-10-2011 00:00 25.9 -- 23.5 2014-10-23 18:30:00
2 2011-10-26 00:00:00 Temperatura 29.8 del 25-10-2011 18:00, Mayor que la Máxima 27.4 26-10-2011 00:00 29.8 -- 27.4 2014-10-23 18:51:00
2 2011-10-27 00:00:00 Temperatura 28.7 del 26-10-2011 18:00, Mayor que la Máxima 26.8 27-10-2011 00:00 28.7 -- 26.8 2014-10-23 18:51:00
2 2011-10-28 00:00:00 Temperatura 25.3 del 27-10-2011 18:00, Mayor que la Máxima 23.6 28-10-2011 00:00 25.3 -- 23.6 2014-10-23 18:51:00
2 2011-10-29 00:00:00 Temperatura 25.8 del 28-10-2011 18:00, Mayor que la Máxima 23.8 29-10-2011 00:00 25.8 -- 23.8 2014-10-23 18:51:00
2 2011-10-30 00:00:00 Temperatura 26.7 del 29-10-2011 18:00, Mayor que la Máxima 25.7 30-10-2011 00:00 26.7 -- 25.7 2014-10-23 18:51:00
2 2011-10-31 00:00:00 Temperatura 30.6 del 30-10-2011 18:00, Mayor que la Máxima 28.2 31-10-2011 00:00 30.6 -- 28.2 2014-10-23 18:52:00
2 2011-11-01 00:00:00 Temperatura 30.8 del 31-10-2011 18:00, Mayor que la Máxima 28.6 01-11-2011 00:00 30.8 -- 28.6 2014-10-23 18:52:00
2 2011-11-02 00:00:00 Temperatura 24.6 del 01-11-2011 18:00, Mayor que la Máxima 22.2 02-11-2011 00:00 24.6 -- 22.2 2014-10-23 19:33:00
2 2011-11-03 00:00:00 Temperatura 30.4 del 02-11-2011 18:00, Mayor que la Máxima 28.3 03-11-2011 00:00 30.4 -- 28.3 2014-10-23 19:33:00
2 2011-11-04 00:00:00 Temperatura 29.6 del 03-11-2011 18:00, Mayor que la Máxima 27.2 04-11-2011 00:00 29.6 -- 27.2 2014-10-23 19:33:00
2 2011-11-05 00:00:00 Temperatura 29.7 del 04-11-2011 18:00, Mayor que la Máxima 27.3 05-11-2011 00:00 29.7 -- 27.3 2014-10-23 19:33:00
2 2011-11-06 00:00:00 Temperatura 30.6 del 05-11-2011 18:00, Mayor que la Máxima 29.6 06-11-2011 00:00 30.6 -- 29.6 2014-10-23 19:33:00
2 2011-11-07 00:00:00 Temperatura 30.8 del 06-11-2011 18:00, Mayor que la Máxima 29.3 07-11-2011 00:00 30.8 -- 29.3 2014-10-23 19:33:00
2 2011-11-08 00:00:00 Temperatura 27.6 del 07-11-2011 18:00, Mayor que la Máxima 25.1 08-11-2011 00:00 27.6 -- 25.1 2014-10-23 19:33:00
2 2011-11-09 00:00:00 Temperatura 20.8 del 08-11-2011 18:00, Mayor que la Máxima 19.1 09-11-2011 00:00 20.8 -- 19.1 2014-10-23 19:33:00
2 2011-11-10 00:00:00 Temperatura 24.8 del 09-11-2011 18:00, Mayor que la Máxima 22.5 10-11-2011 00:00 24.8 -- 22.5 2014-10-23 20:42:00
2 2011-11-11 00:00:00 Temperatura 30.7 del 10-11-2011 18:00, Mayor que la Máxima 28.6 11-11-2011 00:00 30.7 -- 28.6 2014-10-23 20:42:00
2 2011-11-12 00:00:00 Temperatura 31.8 del 11-11-2011 18:00, Mayor que la Máxima 30.1 12-11-2011 00:00 31.8 -- 30.1 2014-10-23 20:42:00
2 2011-11-14 00:00:00 Temperatura 24.9 del 13-11-2011 18:00, Mayor que la Máxima 22.0 14-11-2011 00:00 24.9 -- 22.0 2014-10-23 20:42:00
2 2011-11-15 00:00:00 Temperatura 32.8 del 14-11-2011 18:00, Mayor que la Máxima 30.2 15-11-2011 00:00 32.8 -- 30.2 2014-10-23 20:42:00
2 2011-11-16 00:00:00 Temperatura 29.9 del 15-11-2011 18:00, Mayor que la Máxima 27.6 16-11-2011 00:00 29.9 -- 27.6 2014-10-23 20:42:00
2 2011-11-17 00:00:00 Temperatura 25.9 del 16-11-2011 18:00, Mayor que la Máxima 24.2 17-11-2011 00:00 25.9 -- 24.2 2014-10-23 20:42:00
2 2011-11-18 00:00:00 Temperatura 24.7 del 17-11-2011 18:00, Mayor que la Máxima 22.3 18-11-2011 00:00 24.7 -- 22.3 2014-10-23 20:42:00
2 2011-11-19 00:00:00 Temperatura 24.8 del 18-11-2011 18:00, Mayor que la Máxima 22.1 19-11-2011 00:00 24.8 -- 22.1 2014-10-23 20:42:00
2 2011-11-20 00:00:00 Temperatura 27.4 del 19-11-2011 18:00, Mayor que la Máxima 23.4 20-11-2011 00:00 27.4 -- 23.4 2014-10-23 20:42:00
2 2011-11-21 00:00:00 Temperatura 25.8 del 20-11-2011 18:00, Mayor que la Máxima 22.3 21-11-2011 00:00 25.8 -- 22.3 2014-10-23 20:42:00
2 2011-11-22 00:00:00 Temperatura 31.6 del 21-11-2011 18:00, Mayor que la Máxima 29.1 22-11-2011 00:00 31.6 -- 29.1 2014-10-23 20:42:00
2 2011-11-23 00:00:00 Temperatura 33.8 del 22-11-2011 18:00, Mayor que la Máxima 31.2 23-11-2011 00:00 33.8 -- 31.2 2014-10-23 20:42:00
2 2011-11-24 00:00:00 Temperatura 30.6 del 23-11-2011 18:00, Mayor que la Máxima 28.6 24-11-2011 00:00 30.6 -- 28.6 2014-10-23 20:42:00
2 2011-11-25 00:00:00 Temperatura 32.7 del 24-11-2011 18:00, Mayor que la Máxima 29.2 25-11-2011 00:00 32.7 -- 29.2 2014-10-23 20:42:00
2 2011-11-26 00:00:00 Temperatura 32.8 del 25-11-2011 18:00, Mayor que la Máxima 30.3 26-11-2011 00:00 32.8 -- 30.3 2014-10-23 20:42:00
2 2011-11-27 00:00:00 Temperatura 30.8 del 26-11-2011 18:00, Mayor que la Máxima 29.4 27-11-2011 00:00 30.8 -- 29.4 2014-10-23 20:42:00
2 2011-11-28 00:00:00 Temperatura 26.9 del 27-11-2011 18:00, Mayor que la Máxima 24.8 28-11-2011 00:00 26.9 -- 24.8 2014-10-23 20:42:00
2 2011-11-29 00:00:00 Temperatura 34.8 del 28-11-2011 18:00, Mayor que la Máxima 33.2 29-11-2011 00:00 34.8 -- 33.2 2014-10-23 20:42:00
2 2011-11-30 00:00:00 Temperatura 35.7 del 29-11-2011 18:00, Mayor que la Máxima 33.1 30-11-2011 00:00 35.7 -- 33.1 2014-10-23 20:44:00
2 2011-12-01 00:00:00 Temperatura 33.8 del 30-11-2011 18:00, Mayor que la Máxima 32.2 01-12-2011 00:00 33.8 -- 32.2 2014-10-23 20:47:00
2 2011-12-02 00:00:00 Temperatura 30.6 del 01-12-2011 18:00, Mayor que la Máxima 29.6 02-12-2011 00:00 30.6 -- 29.6 2014-10-24 12:59:00
2 2011-12-03 00:00:00 Temperatura 26.9 del 02-12-2011 18:00, Mayor que la Máxima 25.1 03-12-2011 00:00 26.9 -- 25.1 2014-10-24 12:59:00
2 2011-12-04 00:00:00 Temperatura 28.8 del 03-12-2011 18:00, Mayor que la Máxima 26.3 04-12-2011 00:00 28.8 -- 26.3 2014-10-24 12:59:00
2 2011-12-05 00:00:00 Temperatura 28.9 del 04-12-2011 18:00, Mayor que la Máxima 26.2 05-12-2011 00:00 28.9 -- 26.2 2014-10-24 12:59:00
2 2011-12-06 00:00:00 Temperatura 30.7 del 05-12-2011 18:00, Mayor que la Máxima 29.8 06-12-2011 00:00 30.7 -- 29.8 2014-10-24 12:59:00
2 2011-12-07 00:00:00 Temperatura 30.6 del 06-12-2011 18:00, Mayor que la Máxima 28.8 07-12-2011 00:00 30.6 -- 28.8 2014-10-24 12:59:00
2 2011-12-08 00:00:00 Temperatura 30.8 del 07-12-2011 18:00, Mayor que la Máxima 29.3 08-12-2011 00:00 30.8 -- 29.3 2014-10-24 12:59:00
2 2011-12-10 00:00:00 Temperatura 33.8 del 09-12-2011 18:00, Mayor que la Máxima 31.6 10-12-2011 00:00 33.8 -- 31.6 2014-10-24 12:59:00
2 2011-12-11 00:00:00 Temperatura 30.8 del 10-12-2011 18:00, Mayor que la Máxima 29.1 11-12-2011 00:00 30.8 -- 29.1 2014-10-24 12:59:00
2 2011-12-12 00:00:00 Temperatura 31.6 del 11-12-2011 18:00, Mayor que la Máxima 29.8 12-12-2011 00:00 31.6 -- 29.8 2014-10-24 12:59:00
2 2011-12-13 00:00:00 Temperatura 33.9 del 12-12-2011 18:00, Mayor que la Máxima 31.2 13-12-2011 00:00 33.9 -- 31.2 2014-10-24 12:59:00
2 2011-12-14 00:00:00 Temperatura 31.7 del 13-12-2011 18:00, Mayor que la Máxima 30.4 14-12-2011 00:00 31.7 -- 30.4 2014-10-24 12:59:00
2 2011-12-15 00:00:00 Temperatura 29.7 del 14-12-2011 18:00, Mayor que la Máxima 27.2 15-12-2011 00:00 29.7 -- 27.2 2014-10-24 12:59:00
2 2011-12-16 00:00:00 Temperatura 27.8 del 15-12-2011 18:00, Mayor que la Máxima 25.1 16-12-2011 00:00 27.8 -- 25.1 2014-10-24 12:59:00
2 2011-12-17 00:00:00 Temperatura 27.9 del 16-12-2011 18:00, Mayor que la Máxima 25.2 17-12-2011 00:00 27.9 -- 25.2 2014-10-24 13:41:00
2 2011-12-18 00:00:00 Temperatura 30.8 del 17-12-2011 18:00, Mayor que la Máxima 29.1 18-12-2011 00:00 30.8 -- 29.1 2014-10-24 13:42:00
2 2011-12-19 00:00:00 Temperatura 31.9 del 18-12-2011 18:00, Mayor que la Máxima 30.8 19-12-2011 00:00 31.9 -- 30.8 2014-10-24 13:42:00
2 2011-12-20 00:00:00 Temperatura 32.7 del 19-12-2011 18:00, Mayor que la Máxima 31.7 20-12-2011 00:00 32.7 -- 31.7 2014-10-24 13:42:00
2 2011-12-21 00:00:00 Temperatura 31.6 del 20-12-2011 18:00, Mayor que la Máxima 30.9 21-12-2011 00:00 31.6 -- 30.9 2014-10-24 13:42:00
2 2011-12-22 00:00:00 Temperatura 30.8 del 21-12-2011 18:00, Mayor que la Máxima 29.2 22-12-2011 00:00 30.8 -- 29.2 2014-10-24 13:42:00
2 2011-12-23 00:00:00 Temperatura 30.7 del 22-12-2011 18:00, Mayor que la Máxima 29.1 23-12-2011 00:00 30.7 -- 29.1 2014-10-24 13:42:00
2 2011-12-24 00:00:00 Temperatura 31.9 del 23-12-2011 18:00, Mayor que la Máxima 30.6 24-12-2011 00:00 31.9 -- 30.6 2014-10-24 13:42:00
2 2011-12-25 00:00:00 Temperatura 32.7 del 24-12-2011 18:00, Mayor que la Máxima 30.8 25-12-2011 00:00 32.7 -- 30.8 2014-10-24 13:42:00
2 2011-12-26 00:00:00 Temperatura 32.8 del 25-12-2011 18:00, Mayor que la Máxima 30.6 26-12-2011 00:00 32.8 -- 30.6 2014-10-24 13:42:00
2 2011-12-27 00:00:00 Temperatura 33.6 del 26-12-2011 18:00, Mayor que la Máxima 32.1 27-12-2011 00:00 33.6 -- 32.1 2014-10-24 13:42:00
2 2011-12-28 00:00:00 Temperatura 34.9 del 27-12-2011 18:00, Mayor que la Máxima 33.2 28-12-2011 00:00 34.9 -- 33.2 2014-10-24 13:42:00
2 2011-12-29 00:00:00 Temperatura 33.8 del 28-12-2011 18:00, Mayor que la Máxima 32.3 29-12-2011 00:00 33.8 -- 32.3 2014-10-24 13:42:00
2 2011-12-30 00:00:00 Temperatura 33.8 del 29-12-2011 18:00, Mayor que la Máxima 32.2 30-12-2011 00:00 33.8 -- 32.2 2014-10-24 13:42:00
2 2011-12-31 00:00:00 Temperatura 33.4 del 30-12-2011 18:00, Mayor que la Máxima 32.1 31-12-2011 00:00 33.4 -- 32.1 2014-10-24 13:42:00
2 2012-01-01 00:00:00 Temperatura 30.8 del 31-12-2011 18:00, Mayor que la Máxima 29.1 01-01-2012 00:00 30.8 -- 29.1 2014-10-24 13:42:00
2 2012-01-02 00:00:00 Temperatura 32.7 del 01-01-2012 18:00, Mayor que la Máxima 30.2 02-01-2012 00:00 32.7 -- 30.2 2014-12-10 16:17:00
2 2012-01-02 00:00:00 Temperatura 32.7 del 01-01-2012 18:00, Mayor que la Máxima 30.2 02-01-2012 00:00 32.7 -- 30.2 2014-12-10 16:17:00
2 2012-01-03 00:00:00 Temperatura 33.7 del 02-01-2012 18:00, Mayor que la Máxima 32.4 03-01-2012 00:00 33.7 -- 32.4 2014-12-10 16:17:00
2 2012-01-04 00:00:00 Temperatura 34.9 del 03-01-2012 18:00, Mayor que la Máxima 33.1 04-01-2012 00:00 34.9 -- 33.1 2014-12-10 16:17:00
2 2012-01-05 00:00:00 Temperatura 32.7 del 04-01-2012 18:00, Mayor que la Máxima 30.2 05-01-2012 00:00 32.7 -- 30.2 2014-12-10 17:22:00
2 2012-01-06 00:00:00 Temperatura 30.9 del 05-01-2012 18:00, Mayor que la Máxima 29.1 06-01-2012 00:00 30.9 -- 29.1 2014-12-10 17:09:00
2 2012-01-07 00:00:00 Temperatura 28.8 del 06-01-2012 18:00, Mayor que la Máxima 26.4 07-01-2012 00:00 28.8 -- 26.4 2014-12-10 17:09:00
2 2012-01-08 00:00:00 Temperatura 30.7 del 07-01-2012 18:00, Mayor que la Máxima 28.2 08-01-2012 00:00 30.7 -- 28.2 2014-12-10 17:09:00
2 2012-01-09 00:00:00 Temperatura 30.8 del 08-01-2012 18:00, Mayor que la Máxima 28.8 09-01-2012 00:00 30.8 -- 28.8 2014-12-10 17:09:00
2 2012-01-10 00:00:00 Temperatura 30.7 del 09-01-2012 18:00, Mayor que la Máxima 28.2 10-01-2012 00:00 30.7 -- 28.2 2014-12-10 17:10:00
2 2012-01-11 00:00:00 Temperatura 29.6 del 10-01-2012 18:00, Mayor que la Máxima 27.4 11-01-2012 00:00 29.6 -- 27.4 2014-12-10 17:10:00
2 2012-01-12 00:00:00 Temperatura 30.8 del 11-01-2012 18:00, Mayor que la Máxima 29.4 12-01-2012 00:00 30.8 -- 29.4 2014-12-10 17:10:00
2 2012-01-13 00:00:00 Temperatura 33.6 del 12-01-2012 18:00, Mayor que la Máxima 32.1 13-01-2012 00:00 33.6 -- 32.1 2014-12-10 17:10:00
2 2012-01-14 00:00:00 Temperatura 32.8 del 13-01-2012 18:00, Mayor que la Máxima 30.2 14-01-2012 00:00 32.8 -- 30.2 2014-12-10 17:10:00
2 2012-01-15 00:00:00 Temperatura 30.7 del 14-01-2012 18:00, Mayor que la Máxima 28.3 15-01-2012 00:00 30.7 -- 28.3 2014-12-10 17:10:00
2 2012-01-16 00:00:00 Temperatura 30.8 del 15-01-2012 18:00, Mayor que la Máxima 28.1 16-01-2012 00:00 30.8 -- 28.1 2014-12-10 17:10:00
2 2012-01-17 00:00:00 Temperatura 30.9 del 16-01-2012 18:00, Mayor que la Máxima 28.3 17-01-2012 00:00 30.9 -- 28.3 2014-12-10 17:10:00
2 2012-01-18 00:00:00 Temperatura 32.8 del 17-01-2012 18:00, Mayor que la Máxima 31.2 18-01-2012 00:00 32.8 -- 31.2 2014-12-10 17:10:00
2 2012-01-19 00:00:00 Temperatura 32.7 del 18-01-2012 18:00, Mayor que la Máxima 31.1 19-01-2012 00:00 32.7 -- 31.1 2014-12-10 17:10:00
2 2012-01-20 00:00:00 Temperatura 30.7 del 19-01-2012 18:00, Mayor que la Máxima 29.8 20-01-2012 00:00 30.7 -- 29.8 2014-12-10 17:10:00
2 2012-01-21 00:00:00 Temperatura 28.8 del 20-01-2012 18:00, Mayor que la Máxima 27.6 21-01-2012 00:00 28.8 -- 27.6 2014-12-10 17:10:00
2 2012-01-22 00:00:00 Temperatura 26.7 del 21-01-2012 18:00, Mayor que la Máxima 24.8 22-01-2012 00:00 26.7 -- 24.8 2014-12-10 17:10:00
2 2012-01-23 00:00:00 Temperatura 28.8 del 22-01-2012 18:00, Mayor que la Máxima 26.1 23-01-2012 00:00 28.8 -- 26.1 2014-12-10 17:11:00
2 2012-01-24 00:00:00 Temperatura 26.8 del 23-01-2012 18:00, Mayor que la Máxima 24.9 24-01-2012 00:00 26.8 -- 24.9 2014-12-10 17:11:00
2 2012-01-25 00:00:00 Temperatura 30.7 del 24-01-2012 18:00, Mayor que la Máxima 29.8 25-01-2012 00:00 30.7 -- 29.8 2014-12-10 17:11:00
2 2012-01-26 00:00:00 Temperatura 32.8 del 25-01-2012 18:00, Mayor que la Máxima 30.6 26-01-2012 00:00 32.8 -- 30.6 2014-12-10 17:11:00
2 2012-01-27 00:00:00 Temperatura 30.9 del 26-01-2012 18:00, Mayor que la Máxima 29.6 27-01-2012 00:00 30.9 -- 29.6 2014-12-10 17:11:00
2 2012-01-28 00:00:00 Temperatura 30.8 del 27-01-2012 18:00, Mayor que la Máxima 29.1 28-01-2012 00:00 30.8 -- 29.1 2014-12-10 17:11:00
2 2012-01-29 00:00:00 Temperatura 30.9 del 28-01-2012 18:00, Mayor que la Máxima 29.4 29-01-2012 00:00 30.9 -- 29.4 2014-12-10 17:11:00
2 2012-01-30 00:00:00 Temperatura 30.7 del 29-01-2012 18:00, Mayor que la Máxima 29.8 30-01-2012 00:00 30.7 -- 29.8 2014-12-10 17:11:00
2 2012-01-31 00:00:00 Temperatura 31.1 del 30-01-2012 18:00, Mayor que la Máxima 29.8 31-01-2012 00:00 31.1 -- 29.8 2014-12-10 17:34:00
2 2012-02-01 00:00:00 Temperatura 32.6 del 31-01-2012 18:00, Mayor que la Máxima 30.5 01-02-2012 00:00 32.6 -- 30.5 2014-12-10 17:34:00
2 2012-02-03 00:00:00 Temperatura 32.8 del 02-02-2012 18:00, Mayor que la Máxima 31.2 03-02-2012 00:00 32.8 -- 31.2 2014-12-10 19:37:00
2 2012-02-04 00:00:00 Temperatura 32.8 del 03-02-2012 18:00, Mayor que la Máxima 30.9 04-02-2012 00:00 32.8 -- 30.9 2014-12-10 19:37:00
2 2012-02-05 00:00:00 Temperatura 32.7 del 04-02-2012 18:00, Mayor que la Máxima 30.2 05-02-2012 00:00 32.7 -- 30.2 2014-12-10 19:37:00
2 2012-02-06 00:00:00 Temperatura 32.5 del 05-02-2012 18:00, Mayor que la Máxima 30.9 06-02-2012 00:00 32.5 -- 30.9 2014-12-10 19:37:00
2 2012-02-07 00:00:00 Temperatura 32.8 del 06-02-2012 18:00, Mayor que la Máxima 31.2 07-02-2012 00:00 32.8 -- 31.2 2014-12-10 19:37:00
2 2012-02-08 00:00:00 Temperatura 32.8 del 07-02-2012 18:00, Mayor que la Máxima 31.3 08-02-2012 00:00 32.8 -- 31.3 2014-12-10 19:37:00
2 2012-02-09 00:00:00 Temperatura 32.9 del 08-02-2012 18:00, Mayor que la Máxima 31.5 09-02-2012 00:00 32.9 -- 31.5 2014-12-10 19:37:00
2 2012-02-10 00:00:00 Temperatura 34.9 del 09-02-2012 18:00, Mayor que la Máxima 33.2 10-02-2012 00:00 34.9 -- 33.2 2014-12-10 19:37:00
2 2012-02-11 00:00:00 Temperatura 33.8 del 10-02-2012 18:00, Mayor que la Máxima 32.9 11-02-2012 00:00 33.8 -- 32.9 2014-12-10 19:37:00
2 2012-02-12 00:00:00 Temperatura 32.7 del 11-02-2012 18:00, Mayor que la Máxima 30.7 12-02-2012 00:00 32.7 -- 30.7 2014-12-10 19:37:00
2 2012-02-13 00:00:00 Temperatura 32.5 del 12-02-2012 18:00, Mayor que la Máxima 30.4 13-02-2012 00:00 32.5 -- 30.4 2014-12-10 19:37:00
2 2012-02-14 00:00:00 Temperatura 32.8 del 13-02-2012 18:00, Mayor que la Máxima 30.1 14-02-2012 00:00 32.8 -- 30.1 2014-12-10 19:37:00
2 2012-02-15 00:00:00 Temperatura 32.6 del 14-02-2012 18:00, Mayor que la Máxima 30.9 15-02-2012 00:00 32.6 -- 30.9 2014-12-10 19:37:00
2 2012-02-16 00:00:00 Temperatura 32.2 del 15-02-2012 18:00, Mayor que la Máxima 29.2 16-02-2012 00:00 32.2 -- 29.2 2014-12-10 19:37:00
2 2012-02-17 00:00:00 Temperatura 32.8 del 16-02-2012 18:00, Mayor que la Máxima 30.1 17-02-2012 00:00 32.8 -- 30.1 2014-12-10 19:38:00
2 2012-02-18 00:00:00 Temperatura 31.7 del 17-02-2012 18:00, Mayor que la Máxima 29.4 18-02-2012 00:00 31.7 -- 29.4 2014-12-10 19:38:00
2 2012-02-19 00:00:00 Temperatura 30.8 del 18-02-2012 18:00, Mayor que la Máxima 29.3 19-02-2012 00:00 30.8 -- 29.3 2014-12-10 19:38:00
2 2012-02-20 00:00:00 Temperatura 31.3 del 19-02-2012 18:00, Mayor que la Máxima 29.4 20-02-2012 00:00 31.3 -- 29.4 2014-12-10 19:38:00
2 2012-02-21 00:00:00 Temperatura 31.4 del 20-02-2012 18:00, Mayor que la Máxima 29.2 21-02-2012 00:00 31.4 -- 29.2 2014-12-10 19:38:00
2 2012-02-22 00:00:00 Temperatura 32.6 del 21-02-2012 18:00, Mayor que la Máxima 30.2 22-02-2012 00:00 32.6 -- 30.2 2014-12-10 19:38:00
2 2012-02-23 00:00:00 Temperatura 32.8 del 22-02-2012 18:00, Mayor que la Máxima 30.4 23-02-2012 00:00 32.8 -- 30.4 2014-12-10 19:38:00
2 2012-02-24 00:00:00 Temperatura 30.7 del 23-02-2012 18:00, Mayor que la Máxima 28.1 24-02-2012 00:00 30.7 -- 28.1 2014-12-10 19:39:00
2 2012-02-25 00:00:00 Temperatura 29.7 del 24-02-2012 18:00, Mayor que la Máxima 26.4 25-02-2012 00:00 29.7 -- 26.4 2014-12-10 19:39:00
2 2012-02-26 00:00:00 Temperatura 27.4 del 25-02-2012 18:00, Mayor que la Máxima 25.9 26-02-2012 00:00 27.4 -- 25.9 2014-12-10 19:39:00
2 2012-02-27 00:00:00 Temperatura 31.3 del 26-02-2012 18:00, Mayor que la Máxima 29.7 27-02-2012 00:00 31.3 -- 29.7 2014-12-10 19:39:00
2 2012-02-28 00:00:00 Temperatura 32.9 del 27-02-2012 18:00, Mayor que la Máxima 31.2 28-02-2012 00:00 32.9 -- 31.2 2014-12-10 19:39:00
2 2012-02-29 00:00:00 Temperatura 29.6 del 28-02-2012 18:00, Mayor que la Máxima 27.8 29-02-2012 00:00 29.6 -- 27.8 2014-12-10 19:39:00
2 2012-03-01 00:00:00 Temperatura 26.8 del 29-02-2012 18:00, Mayor que la Máxima 25.2 01-03-2012 00:00 26.8 -- 25.2 2014-12-10 19:39:00
2 2012-03-02 00:00:00 Temperatura 33.4 del 01-03-2012 18:00, Mayor que la Máxima 31.4 02-03-2012 00:00 33.4 -- 31.4 2014-12-10 20:02:00
2 2012-03-03 00:00:00 Temperatura 32.8 del 02-03-2012 18:00, Mayor que la Máxima 31.8 03-03-2012 00:00 32.8 -- 31.8 2014-12-10 20:02:00
2 2012-03-04 00:00:00 Temperatura 32.9 del 03-03-2012 18:00, Mayor que la Máxima 31.8 04-03-2012 00:00 32.9 -- 31.8 2014-12-10 20:02:00
2 2012-03-06 00:00:00 Temperatura 32.8 del 05-03-2012 18:00, Mayor que la Máxima 30.2 06-03-2012 00:00 32.8 -- 30.2 2014-12-10 20:03:00
2 2012-03-07 00:00:00 Temperatura 31.7 del 06-03-2012 18:00, Mayor que la Máxima 29.6 07-03-2012 00:00 31.7 -- 29.6 2014-12-10 20:19:00
2 2012-03-08 00:00:00 Temperatura 34.7 del 07-03-2012 18:00, Mayor que la Máxima 33.3 08-03-2012 00:00 34.7 -- 33.3 2014-12-11 12:47:00
2 2012-03-09 00:00:00 Temperatura 33.9 del 08-03-2012 18:00, Mayor que la Máxima 32.2 09-03-2012 00:00 33.9 -- 32.2 2014-12-11 12:47:00
2 2012-03-10 00:00:00 Temperatura 33.5 del 09-03-2012 18:00, Mayor que la Máxima 31.3 10-03-2012 00:00 33.5 -- 31.3 2014-12-11 12:47:00
2 2012-03-11 00:00:00 Temperatura 36.8 del 10-03-2012 18:00, Mayor que la Máxima 30.2 11-03-2012 00:00 36.8 -- 30.2 2014-12-11 12:47:00
2 2012-03-12 00:00:00 Temperatura 30.7 del 11-03-2012 18:00, Mayor que la Máxima 28.2 12-03-2012 00:00 30.7 -- 28.2 2014-12-11 12:47:00
2 2012-03-13 00:00:00 Temperatura 30.9 del 12-03-2012 18:00, Mayor que la Máxima 28.4 13-03-2012 00:00 30.9 -- 28.4 2014-12-11 12:48:00
2 2012-03-14 00:00:00 Temperatura 30.7 del 13-03-2012 18:00, Mayor que la Máxima 29.4 14-03-2012 00:00 30.7 -- 29.4 2014-12-11 12:48:00
2 2012-03-15 00:00:00 Temperatura 34.9 del 14-03-2012 18:00, Mayor que la Máxima 33.8 15-03-2012 00:00 34.9 -- 33.8 2014-12-11 12:48:00
2 2012-03-16 00:00:00 Temperatura 33.8 del 15-03-2012 18:00, Mayor que la Máxima 32.2 16-03-2012 00:00 33.8 -- 32.2 2014-12-11 12:48:00
2 2012-03-17 00:00:00 Temperatura 28.8 del 16-03-2012 18:00, Mayor que la Máxima 27.1 17-03-2012 00:00 28.8 -- 27.1 2014-12-11 12:48:00
2 2012-03-18 00:00:00 Temperatura 27.7 del 17-03-2012 18:00, Mayor que la Máxima 25.2 18-03-2012 00:00 27.7 -- 25.2 2014-12-11 12:48:00
2 2012-03-19 00:00:00 Temperatura 30.8 del 18-03-2012 18:00, Mayor que la Máxima 28.2 19-03-2012 00:00 30.8 -- 28.2 2014-12-11 13:51:00
2 2012-03-20 00:00:00 Temperatura 28.8 del 19-03-2012 18:00, Mayor que la Máxima 27.3 20-03-2012 00:00 28.8 -- 27.3 2014-12-11 13:51:00
2 2012-03-21 00:00:00 Temperatura 28.5 del 20-03-2012 18:00, Mayor que la Máxima 27.1 21-03-2012 00:00 28.5 -- 27.1 2014-12-11 13:51:00
2 2012-03-22 00:00:00 Temperatura 28.8 del 21-03-2012 18:00, Mayor que la Máxima 27.3 22-03-2012 00:00 28.8 -- 27.3 2014-12-11 13:51:00
2 2012-03-23 00:00:00 Temperatura 31.7 del 22-03-2012 18:00, Mayor que la Máxima 29.4 23-03-2012 00:00 31.7 -- 29.4 2014-12-11 13:51:00
2 2012-03-24 00:00:00 Temperatura 31.5 del 23-03-2012 18:00, Mayor que la Máxima 29.6 24-03-2012 00:00 31.5 -- 29.6 2014-12-11 13:51:00
2 2012-03-25 00:00:00 Temperatura 28.4 del 24-03-2012 18:00, Mayor que la Máxima 27.5 25-03-2012 00:00 28.4 -- 27.5 2014-12-11 13:51:00
2 2012-03-26 00:00:00 Temperatura 28.6 del 25-03-2012 18:00, Mayor que la Máxima 27.3 26-03-2012 00:00 28.6 -- 27.3 2014-12-11 13:51:00
2 2012-03-27 00:00:00 Temperatura 32.9 del 26-03-2012 18:00, Mayor que la Máxima 31.3 27-03-2012 00:00 32.9 -- 31.3 2014-12-11 13:51:00
2 2012-03-28 00:00:00 Temperatura 32.8 del 27-03-2012 18:00, Mayor que la Máxima 31.8 28-03-2012 00:00 32.8 -- 31.8 2014-12-11 13:51:00
2 2012-03-29 00:00:00 Temperatura 30.8 del 28-03-2012 18:00, Mayor que la Máxima 29.2 29-03-2012 00:00 30.8 -- 29.2 2014-12-11 13:51:00
2 2012-03-30 00:00:00 Temperatura 31.9 del 29-03-2012 18:00, Mayor que la Máxima 30.2 30-03-2012 00:00 31.9 -- 30.2 2014-12-11 13:51:00
2 2012-03-31 00:00:00 Temperatura 32.7 del 30-03-2012 18:00, Mayor que la Máxima 31.4 31-03-2012 00:00 32.7 -- 31.4 2014-12-11 13:51:00
2 2012-04-01 00:00:00 Temperatura 32.4 del 31-03-2012 18:00, Mayor que la Máxima 31.3 01-04-2012 00:00 32.4 -- 31.3 2014-12-11 13:51:00
2 2012-04-02 00:00:00 Temperatura 30.8 del 01-04-2012 18:00, Mayor que la Máxima 29.4 02-04-2012 00:00 30.8 -- 29.4 2014-12-11 16:06:00
2 2012-04-03 00:00:00 Temperatura 30.9 del 02-04-2012 18:00, Mayor que la Máxima 29.2 03-04-2012 00:00 30.9 -- 29.2 2014-12-11 16:06:00
2 2012-04-04 00:00:00 Temperatura 28.6 del 03-04-2012 18:00, Mayor que la Máxima 26.2 04-04-2012 00:00 28.6 -- 26.2 2014-12-11 16:06:00
2 2012-04-05 00:00:00 Temperatura 22.8 del 04-04-2012 18:00, Mayor que la Máxima 20.2 05-04-2012 00:00 22.8 -- 20.2 2014-12-11 16:06:00
2 2012-04-06 00:00:00 Temperatura 26.8 del 05-04-2012 18:00, Mayor que la Máxima 25.1 06-04-2012 00:00 26.8 -- 25.1 2014-12-11 16:06:00
2 2012-04-07 00:00:00 Temperatura 30.9 del 06-04-2012 18:00, Mayor que la Máxima 28.2 07-04-2012 00:00 30.9 -- 28.2 2014-12-11 16:06:00
2 2012-04-08 00:00:00 Temperatura 30.7 del 07-04-2012 18:00, Mayor que la Máxima 29.2 08-04-2012 00:00 30.7 -- 29.2 2014-12-11 16:06:00
2 2012-04-09 00:00:00 Temperatura 26.2 del 08-04-2012 18:00, Mayor que la Máxima 24.3 09-04-2012 00:00 26.2 -- 24.3 2014-12-11 16:06:00
2 2012-04-10 00:00:00 Temperatura 20.8 del 09-04-2012 18:00, Mayor que la Máxima 18.2 10-04-2012 00:00 20.8 -- 18.2 2014-12-11 16:06:00
2 2012-04-11 00:00:00 Temperatura 23.9 del 10-04-2012 18:00, Mayor que la Máxima 22.4 11-04-2012 00:00 23.9 -- 22.4 2014-12-11 16:06:00
2 2012-04-12 00:00:00 Temperatura 28.7 del 11-04-2012 18:00, Mayor que la Máxima 27.2 12-04-2012 00:00 28.7 -- 27.2 2014-12-11 16:06:00
2 2012-04-13 00:00:00 Temperatura 27.8 del 12-04-2012 18:00, Mayor que la Máxima 25.4 13-04-2012 00:00 27.8 -- 25.4 2014-12-11 16:06:00
2 2012-04-14 00:00:00 Temperatura 26.7 del 13-04-2012 18:00, Mayor que la Máxima 25.2 14-04-2012 00:00 26.7 -- 25.2 2014-12-11 16:06:00
2 2012-04-15 00:00:00 Temperatura 25.8 del 14-04-2012 18:00, Mayor que la Máxima 24.2 15-04-2012 00:00 25.8 -- 24.2 2014-12-11 16:06:00
2 2012-04-16 00:00:00 Temperatura 28.5 del 15-04-2012 18:00, Mayor que la Máxima 26.8 16-04-2012 00:00 28.5 -- 26.8 2014-12-11 16:06:00
2 2012-04-17 00:00:00 Temperatura 25.8 del 16-04-2012 18:00, Mayor que la Máxima 24.6 17-04-2012 00:00 25.8 -- 24.6 2014-12-11 16:06:00
2 2012-04-18 00:00:00 Temperatura 28.6 del 17-04-2012 18:00, Mayor que la Máxima 26.2 18-04-2012 00:00 28.6 -- 26.2 2014-12-11 16:06:00
2 2012-04-20 00:00:00 Temperatura 25.9 del 19-04-2012 18:00, Mayor que la Máxima 24.4 20-04-2012 00:00 25.9 -- 24.4 2014-12-11 16:06:00
2 2012-04-21 00:00:00 Temperatura 26.8 del 20-04-2012 18:00, Mayor que la Máxima 25.3 21-04-2012 00:00 26.8 -- 25.3 2014-12-11 16:06:00
2 2012-04-22 00:00:00 Temperatura 25.7 del 21-04-2012 18:00, Mayor que la Máxima 23.4 22-04-2012 00:00 25.7 -- 23.4 2014-12-11 16:06:00
2 2012-04-23 00:00:00 Temperatura 28.8 del 22-04-2012 18:00, Mayor que la Máxima 27.1 23-04-2012 00:00 28.8 -- 27.1 2014-12-11 16:06:00
2 2012-04-24 00:00:00 Temperatura 25.8 del 23-04-2012 18:00, Mayor que la Máxima 23.7 24-04-2012 00:00 25.8 -- 23.7 2014-12-11 16:06:00
2 2012-04-25 00:00:00 Temperatura 18.6 del 24-04-2012 18:00, Mayor que la Máxima 17.2 25-04-2012 00:00 18.6 -- 17.2 2014-12-11 16:06:00
2 2012-04-26 00:00:00 Temperatura 19.4 del 25-04-2012 18:00, Mayor que la Máxima 17.3 26-04-2012 00:00 19.4 -- 17.3 2014-12-11 16:06:00
2 2012-04-27 00:00:00 Temperatura 20.8 del 26-04-2012 18:00, Mayor que la Máxima 19.2 27-04-2012 00:00 20.8 -- 19.2 2014-12-11 16:06:00
2 2012-04-28 00:00:00 Temperatura 16.8 del 27-04-2012 18:00, Mayor que la Máxima 15.4 28-04-2012 00:00 16.8 -- 15.4 2014-12-11 16:06:00
2 2012-04-29 00:00:00 Temperatura 15.7 del 28-04-2012 18:00, Mayor que la Máxima 13.1 29-04-2012 00:00 15.7 -- 13.1 2014-12-11 16:06:00
2 2012-04-30 00:00:00 Temperatura 22.7 del 29-04-2012 18:00, Mayor que la Máxima 21.8 30-04-2012 00:00 22.7 -- 21.8 2014-12-11 17:22:00
2 2012-05-01 00:00:00 Temperatura 26.9 del 30-04-2012 18:00, Mayor que la Máxima 24.8 01-05-2012 00:00 26.9 -- 24.8 2014-12-11 17:22:00
2 2012-05-02 00:00:00 Temperatura 26.7 del 01-05-2012 18:00, Mayor que la Máxima 24.2 02-05-2012 00:00 26.7 -- 24.2 2014-12-11 19:15:00
2 2012-05-03 00:00:00 Temperatura 24.4 del 02-05-2012 18:00, Mayor que la Máxima 23.4 03-05-2012 00:00 24.4 -- 23.4 2014-12-11 19:15:00
2 2012-05-04 00:00:00 Temperatura 24.8 del 03-05-2012 18:00, Mayor que la Máxima 22.4 04-05-2012 00:00 24.8 -- 22.4 2014-12-11 19:15:00
2 2012-05-05 00:00:00 Temperatura 22.8 del 04-05-2012 18:00, Mayor que la Máxima 20.3 05-05-2012 00:00 22.8 -- 20.3 2014-12-11 19:15:00
2 2012-05-06 00:00:00 Temperatura 22.7 del 05-05-2012 18:00, Mayor que la Máxima 20.0 06-05-2012 00:00 22.7 -- 20.0 2014-12-11 19:15:00
2 2012-05-07 00:00:00 Temperatura 20.7 del 06-05-2012 18:00, Mayor que la Máxima 18.1 07-05-2012 00:00 20.7 -- 18.1 2014-12-11 19:15:00
2 2012-05-08 00:00:00 Temperatura 22.8 del 07-05-2012 18:00, Mayor que la Máxima 19.8 08-05-2012 00:00 22.8 -- 19.8 2014-12-11 19:15:00
2 2012-05-09 00:00:00 Temperatura 22.7 del 08-05-2012 18:00, Mayor que la Máxima 19.2 09-05-2012 00:00 22.7 -- 19.2 2014-12-11 19:15:00
2 2012-05-10 00:00:00 Temperatura 20.8 del 09-05-2012 18:00, Mayor que la Máxima 18.3 10-05-2012 00:00 20.8 -- 18.3 2014-12-11 19:15:00
2 2012-05-11 00:00:00 Temperatura 19.9 del 10-05-2012 18:00, Mayor que la Máxima 17.5 11-05-2012 00:00 19.9 -- 17.5 2014-12-11 19:15:00
2 2012-05-12 00:00:00 Temperatura 20.7 del 11-05-2012 18:00, Mayor que la Máxima 19.3 12-05-2012 00:00 20.7 -- 19.3 2014-12-11 19:15:00
2 2012-05-13 00:00:00 Temperatura 18.8 del 12-05-2012 18:00, Mayor que la Máxima 17.1 13-05-2012 00:00 18.8 -- 17.1 2014-12-11 19:15:00
2 2012-05-14 00:00:00 Temperatura 17.6 del 13-05-2012 18:00, Mayor que la Máxima 15.2 14-05-2012 00:00 17.6 -- 15.2 2014-12-11 19:15:00
2 2012-05-15 00:00:00 Temperatura 22.8 del 14-05-2012 18:00, Mayor que la Máxima 21.2 15-05-2012 00:00 22.8 -- 21.2 2014-12-11 19:15:00
2 2012-05-16 00:00:00 Temperatura 20.7 del 15-05-2012 18:00, Mayor que la Máxima 18.8 16-05-2012 00:00 20.7 -- 18.8 2014-12-11 19:15:00
2 2012-05-17 00:00:00 Temperatura 20.8 del 16-05-2012 18:00, Mayor que la Máxima 18.2 17-05-2012 00:00 20.8 -- 18.2 2014-12-11 19:15:00
2 2012-05-18 00:00:00 Temperatura 13.6 del 17-05-2012 18:00, Mayor que la Máxima 11.8 18-05-2012 00:00 13.6 -- 11.8 2014-12-11 19:15:00
2 2012-05-19 00:00:00 Temperatura 24.7 del 18-05-2012 18:00, Mayor que la Máxima 22.3 19-05-2012 00:00 24.7 -- 22.3 2014-12-11 19:15:00
2 2012-05-20 00:00:00 Temperatura 22.8 del 19-05-2012 18:00, Mayor que la Máxima 20.4 20-05-2012 00:00 22.8 -- 20.4 2014-12-11 19:15:00
2 2012-05-21 00:00:00 Temperatura 20.8 del 20-05-2012 18:00, Mayor que la Máxima 18.5 21-05-2012 00:00 20.8 -- 18.5 2014-12-11 19:15:00
2 2012-05-22 00:00:00 Temperatura 22.8 del 21-05-2012 18:00, Mayor que la Máxima 21.8 22-05-2012 00:00 22.8 -- 21.8 2014-12-11 19:15:00
2 2012-05-23 00:00:00 Temperatura 22.7 del 22-05-2012 18:00, Mayor que la Máxima 21.7 23-05-2012 00:00 22.7 -- 21.7 2014-12-11 19:16:00
2 2012-05-24 00:00:00 Temperatura 26.7 del 23-05-2012 18:00, Mayor que la Máxima 24.2 24-05-2012 00:00 26.7 -- 24.2 2014-12-11 19:16:00
2 2012-05-25 00:00:00 Temperatura 20.7 del 24-05-2012 18:00, Mayor que la Máxima 18.2 25-05-2012 00:00 20.7 -- 18.2 2014-12-11 19:16:00
2 2012-05-26 00:00:00 Temperatura 14.8 del 25-05-2012 18:00, Mayor que la Máxima 12.4 26-05-2012 00:00 14.8 -- 12.4 2014-12-11 19:16:00
2 2012-05-27 00:00:00 Temperatura 20.8 del 26-05-2012 18:00, Mayor que la Máxima 19.4 27-05-2012 00:00 20.8 -- 19.4 2014-12-11 19:16:00
2 2012-05-28 00:00:00 Temperatura 15.6 del 27-05-2012 18:00, Mayor que la Máxima 14.8 28-05-2012 00:00 15.6 -- 14.8 2014-12-11 19:16:00
2 2012-05-29 00:00:00 Temperatura 20.7 del 28-05-2012 18:00, Mayor que la Máxima 19.8 29-05-2012 00:00 20.7 -- 19.8 2014-12-11 19:16:00
2 2012-05-30 00:00:00 Temperatura 20.9 del 29-05-2012 18:00, Mayor que la Máxima 19.6 30-05-2012 00:00 20.9 -- 19.6 2014-12-11 19:16:00
2 2012-05-31 00:00:00 Temperatura 20.6 del 30-05-2012 18:00, Mayor que la Máxima 19.1 31-05-2012 00:00 20.6 -- 19.1 2014-12-11 19:16:00
2 2012-06-01 00:00:00 Temperatura 20.5 del 31-05-2012 18:00, Mayor que la Máxima 18.8 01-06-2012 00:00 20.5 -- 18.8 2014-12-11 19:16:00
2 2012-06-02 00:00:00 Temperatura 22.9 del 01-06-2012 18:00, Mayor que la Máxima 21.2 02-06-2012 00:00 22.9 -- 21.2 2014-12-11 19:49:00
2 2012-06-03 00:00:00 Temperatura 22.7 del 02-06-2012 18:00, Mayor que la Máxima 20.1 03-06-2012 00:00 22.7 -- 20.1 2014-12-11 19:49:00
2 2012-06-04 00:00:00 Temperatura 16.8 del 03-06-2012 18:00, Mayor que la Máxima 15.1 04-06-2012 00:00 16.8 -- 15.1 2014-12-11 19:49:00
2 2012-06-05 00:00:00 Temperatura 15.7 del 04-06-2012 18:00, Mayor que la Máxima 14.4 05-06-2012 00:00 15.7 -- 14.4 2014-12-11 19:49:00
2 2012-06-06 00:00:00 Temperatura 17.8 del 05-06-2012 18:00, Mayor que la Máxima 15.2 06-06-2012 00:00 17.8 -- 15.2 2014-12-11 19:49:00
2 2012-06-07 00:00:00 Temperatura 19.9 del 06-06-2012 18:00, Mayor que la Máxima 17.4 07-06-2012 00:00 19.9 -- 17.4 2014-12-11 19:49:00
2 2012-06-08 00:00:00 Temperatura 23.7 del 07-06-2012 18:00, Mayor que la Máxima 22.3 08-06-2012 00:00 23.7 -- 22.3 2014-12-11 19:49:00
2 2012-06-09 00:00:00 Temperatura 22.2 del 08-06-2012 18:00, Mayor que la Máxima 21.0 09-06-2012 00:00 22.2 -- 21.0 2014-12-11 19:49:00
2 2012-06-10 00:00:00 Temperatura 23.6 del 09-06-2012 18:00, Mayor que la Máxima 8.0 10-06-2012 00:00 23.6 -- 8.0 2014-12-11 19:49:00
2 2012-06-11 00:00:00 Temperatura 15.7 del 10-06-2012 18:00, Mayor que la Máxima 8.0 11-06-2012 00:00 15.7 -- 8.0 2014-12-11 20:22:00
2 2012-06-12 00:00:00 Temperatura 17.8 del 11-06-2012 18:00, Mayor que la Máxima 10.8 12-06-2012 00:00 17.8 -- 10.8 2014-12-11 20:22:00
2 2012-06-13 00:00:00 Temperatura 13.2 del 12-06-2012 18:00, Mayor que la Máxima 11.8 13-06-2012 00:00 13.2 -- 11.8 2014-12-11 20:22:00
2 2012-06-14 00:00:00 Temperatura 17.8 del 13-06-2012 18:00, Mayor que la Máxima 11.8 14-06-2012 00:00 17.8 -- 11.8 2014-12-11 20:22:00
2 2012-06-16 00:00:00 Temperatura 16.8 del 15-06-2012 18:00, Mayor que la Máxima 16.5 16-06-2012 00:00 16.8 -- 16.5 2014-12-11 20:22:00
2 2012-06-18 00:00:00 Temperatura 11.3 del 17-06-2012 18:00, Mayor que la Máxima 8.0 18-06-2012 00:00 11.3 -- 8.0 2014-12-11 20:22:00
2 2012-06-21 00:00:00 Temperatura 11.3 del 21-06-2012 00:00, Mayor que la Máxima 11.0 21-06-2012 00:00 11.3 -- 11.0 2014-12-11 20:22:00
2 2012-06-24 00:00:00 Temperatura 10.7 del 24-06-2012 00:00, Mayor que la Máxima 1.8 24-06-2012 00:00 10.7 -- 1.8 2014-12-12 12:14:00
2 2012-06-26 00:00:00 Temperatura 16.2 del 25-06-2012 18:00, Mayor que la Máxima 2.2 26-06-2012 00:00 16.2 -- 2.2 2014-12-12 12:14:00
2 2012-06-28 00:00:00 Temperatura 9.8 del 27-06-2012 18:00, Mayor que la Máxima 8.0 28-06-2012 00:00 9.8 -- 8.0 2014-12-12 12:14:00
2 2012-06-29 00:00:00 Temperatura 8.8 del 28-06-2012 18:00, Mayor que la Máxima 8.0 29-06-2012 00:00 8.8 -- 8.0 2014-12-12 12:14:00
2 2012-06-30 00:00:00 Temperatura 7.2 del 30-06-2012 00:00, Mayor que la Máxima 7.0 30-06-2012 00:00 7.2 -- 7.0 2014-12-12 12:15:00
2 2012-07-02 00:00:00 Temperatura 16.2 del 02-07-2012 00:00, Mayor que la Máxima 8.0 02-07-2012 00:00 16.2 -- 8.0 2014-12-12 19:04:00
2 2012-07-03 00:00:00 Temperatura 11.3 del 03-07-2012 00:00, Mayor que la Máxima 8.0 03-07-2012 00:00 11.3 -- 8.0 2014-12-12 13:56:00
2 2012-07-04 00:00:00 Temperatura 8.4 del 03-07-2012 18:00, Mayor que la Máxima 8.0 04-07-2012 00:00 8.4 -- 8.0 2014-12-12 13:56:00
2 2012-07-05 00:00:00 Temperatura 9.8 del 05-07-2012 00:00, Mayor que la Máxima 8.2 05-07-2012 00:00 9.8 -- 8.2 2014-12-12 13:57:00
2 2012-07-10 00:00:00 Temperatura 15.7 del 09-07-2012 18:00, Mayor que la Máxima 13.6 10-07-2012 00:00 15.7 -- 13.6 2014-12-12 13:57:00
2 2012-07-11 00:00:00 Temperatura 18.7 del 10-07-2012 18:00, Mayor que la Máxima 16.4 11-07-2012 00:00 18.7 -- 16.4 2014-12-12 13:57:00
2 2012-07-12 00:00:00 Temperatura 15.9 del 11-07-2012 18:00, Mayor que la Máxima 14.1 12-07-2012 00:00 15.9 -- 14.1 2014-12-12 13:57:00
2 2012-07-13 00:00:00 Temperatura 17.4 del 12-07-2012 18:00, Mayor que la Máxima 16.1 13-07-2012 00:00 17.4 -- 16.1 2014-12-12 13:57:00
2 2012-07-14 00:00:00 Temperatura 19.8 del 13-07-2012 18:00, Mayor que la Máxima 18.8 14-07-2012 00:00 19.8 -- 18.8 2014-12-12 13:58:00
2 2012-07-15 00:00:00 Temperatura 14.7 del 14-07-2012 18:00, Mayor que la Máxima 12.0 15-07-2012 00:00 14.7 -- 12.0 2014-12-12 13:58:00
2 2012-07-16 00:00:00 Temperatura 16.8 del 15-07-2012 18:00, Mayor que la Máxima 14.9 16-07-2012 00:00 16.8 -- 14.9 2014-12-12 13:58:00
2 2012-07-17 00:00:00 Temperatura 20.7 del 16-07-2012 18:00, Mayor que la Máxima 19.4 17-07-2012 00:00 20.7 -- 19.4 2014-12-12 13:58:00
2 2012-07-18 00:00:00 Temperatura 25.9 del 17-07-2012 18:00, Mayor que la Máxima 24.0 18-07-2012 00:00 25.9 -- 24.0 2014-12-12 13:58:00
2 2012-07-19 00:00:00 Temperatura 28.9 del 18-07-2012 18:00, Mayor que la Máxima 27.5 19-07-2012 00:00 28.9 -- 27.5 2014-12-12 13:58:00
2 2012-07-20 00:00:00 Temperatura 20.8 del 19-07-2012 18:00, Mayor que la Máxima 20.1 20-07-2012 00:00 20.8 -- 20.1 2014-12-12 13:58:00
2 2012-07-21 00:00:00 Temperatura 22.7 del 20-07-2012 18:00, Mayor que la Máxima 21.2 21-07-2012 00:00 22.7 -- 21.2 2014-12-12 13:58:00
2 2012-07-22 00:00:00 Temperatura 13.3 del 21-07-2012 18:00, Mayor que la Máxima 12.2 22-07-2012 00:00 13.3 -- 12.2 2014-12-12 13:58:00
2 2012-07-23 00:00:00 Temperatura 22.8 del 22-07-2012 18:00, Mayor que la Máxima 22.4 23-07-2012 00:00 22.8 -- 22.4 2014-12-12 13:58:00
2 2012-07-24 00:00:00 Temperatura 15.7 del 23-07-2012 18:00, Mayor que la Máxima 14.1 24-07-2012 00:00 15.7 -- 14.1 2014-12-12 13:58:00
2 2012-07-25 00:00:00 Temperatura 15.6 del 24-07-2012 18:00, Mayor que la Máxima 13.3 25-07-2012 00:00 15.6 -- 13.3 2014-12-12 13:58:00
2 2012-07-26 00:00:00 Temperatura 15.7 del 25-07-2012 18:00, Mayor que la Máxima 15.0 26-07-2012 00:00 15.7 -- 15.0 2014-12-12 13:58:00
2 2012-07-27 00:00:00 Temperatura 15.9 del 26-07-2012 18:00, Mayor que la Máxima 15.1 27-07-2012 00:00 15.9 -- 15.1 2014-12-12 13:58:00
2 2012-07-28 00:00:00 Temperatura 22.5 del 27-07-2012 18:00, Mayor que la Máxima 20.1 28-07-2012 00:00 22.5 -- 20.1 2014-12-12 13:58:00
2 2012-07-29 00:00:00 Temperatura 16.2 del 28-07-2012 18:00, Mayor que la Máxima 15.6 29-07-2012 00:00 16.2 -- 15.6 2014-12-12 13:58:00
2 2012-07-30 00:00:00 Temperatura 18.8 del 29-07-2012 18:00, Mayor que la Máxima 16.1 30-07-2012 00:00 18.8 -- 16.1 2014-12-12 13:58:00
2 2012-07-31 00:00:00 Temperatura 20.8 del 30-07-2012 18:00, Mayor que la Máxima 20.2 31-07-2012 00:00 20.8 -- 20.2 2014-12-12 13:58:00
2 2012-08-01 00:00:00 Temperatura 15.6 del 31-07-2012 18:00, Mayor que la Máxima 13.5 01-08-2012 00:00 15.6 -- 13.5 2014-12-12 13:58:00
2 2012-08-02 00:00:00 Temperatura 15.8 del 01-08-2012 18:00, Mayor que la Máxima 14.1 02-08-2012 00:00 15.8 -- 14.1 2014-12-12 16:00:00
2 2012-08-03 00:00:00 Temperatura 16.7 del 02-08-2012 18:00, Mayor que la Máxima 15.1 03-08-2012 00:00 16.7 -- 15.1 2014-12-12 16:00:00
2 2012-08-04 00:00:00 Temperatura 16.8 del 03-08-2012 18:00, Mayor que la Máxima 15.3 04-08-2012 00:00 16.8 -- 15.3 2014-12-12 16:00:00
2 2012-08-05 00:00:00 Temperatura 16.9 del 04-08-2012 18:00, Mayor que la Máxima 15.0 05-08-2012 00:00 16.9 -- 15.0 2014-12-12 16:01:00
2 2012-08-06 00:00:00 Temperatura 17.8 del 05-08-2012 18:00, Mayor que la Máxima 16.6 06-08-2012 00:00 17.8 -- 16.6 2014-12-12 16:01:00
2 2012-08-07 00:00:00 Temperatura 14.8 del 06-08-2012 18:00, Mayor que la Máxima 13.6 07-08-2012 00:00 14.8 -- 13.6 2014-12-12 16:01:00
2 2012-08-09 00:00:00 Temperatura 23.8 del 08-08-2012 18:00, Mayor que la Máxima 22.1 09-08-2012 00:00 23.8 -- 22.1 2014-12-12 16:01:00
2 2012-08-10 00:00:00 Temperatura 20.9 del 09-08-2012 18:00, Mayor que la Máxima 18.4 10-08-2012 00:00 20.9 -- 18.4 2014-12-12 16:01:00
2 2012-08-11 00:00:00 Temperatura 17.8 del 10-08-2012 18:00, Mayor que la Máxima 16.4 11-08-2012 00:00 17.8 -- 16.4 2014-12-12 16:01:00
2 2012-08-12 00:00:00 Temperatura 14.8 del 11-08-2012 18:00, Mayor que la Máxima 12.2 12-08-2012 00:00 14.8 -- 12.2 2014-12-12 16:01:00
2 2012-08-13 00:00:00 Temperatura 15.2 del 12-08-2012 18:00, Mayor que la Máxima 14.9 13-08-2012 00:00 15.2 -- 14.9 2014-12-12 16:01:00
2 2012-08-14 00:00:00 Temperatura 12.8 del 13-08-2012 18:00, Mayor que la Máxima 11.6 14-08-2012 00:00 12.8 -- 11.6 2014-12-12 16:01:00
2 2012-08-15 00:00:00 Temperatura 17.8 del 14-08-2012 18:00, Mayor que la Máxima 10.1 15-08-2012 00:00 17.8 -- 10.1 2014-12-12 16:01:00
2 2012-08-16 00:00:00 Temperatura 17.8 del 15-08-2012 18:00, Mayor que la Máxima 16.1 16-08-2012 00:00 17.8 -- 16.1 2014-12-12 16:01:00
2 2012-08-18 00:00:00 Temperatura 13.9 del 17-08-2012 18:00, Mayor que la Máxima 12.2 18-08-2012 00:00 13.9 -- 12.2 2014-12-12 16:01:00
2 2012-08-19 00:00:00 Temperatura 20.8 del 18-08-2012 18:00, Mayor que la Máxima 18.5 19-08-2012 00:00 20.8 -- 18.5 2014-12-12 16:01:00
2 2012-08-20 00:00:00 Temperatura 14.7 del 19-08-2012 18:00, Mayor que la Máxima 12.4 20-08-2012 00:00 14.7 -- 12.4 2014-12-12 16:01:00
2 2012-08-21 00:00:00 Temperatura 28.8 del 20-08-2012 18:00, Mayor que la Máxima 21.9 21-08-2012 00:00 28.8 -- 21.9 2014-12-12 16:01:00
2 2012-08-22 00:00:00 Temperatura 17.9 del 21-08-2012 18:00, Mayor que la Máxima 16.2 22-08-2012 00:00 17.9 -- 16.2 2014-12-12 16:01:00
2 2012-08-23 00:00:00 Temperatura 14.6 del 22-08-2012 18:00, Mayor que la Máxima 12.4 23-08-2012 00:00 14.6 -- 12.4 2014-12-12 16:01:00
2 2012-08-24 00:00:00 Temperatura 13.8 del 23-08-2012 18:00, Mayor que la Máxima 11.1 24-08-2012 00:00 13.8 -- 11.1 2014-12-12 16:01:00
2 2012-08-25 00:00:00 Temperatura 14.7 del 24-08-2012 18:00, Mayor que la Máxima 13.2 25-08-2012 00:00 14.7 -- 13.2 2014-12-12 16:01:00
2 2012-08-26 00:00:00 Temperatura 17.8 del 25-08-2012 18:00, Mayor que la Máxima 15.8 26-08-2012 00:00 17.8 -- 15.8 2014-12-12 16:01:00
2 2012-08-27 00:00:00 Temperatura 21.8 del 26-08-2012 18:00, Mayor que la Máxima 19.5 27-08-2012 00:00 21.8 -- 19.5 2014-12-12 16:01:00
2 2012-08-28 00:00:00 Temperatura 25.7 del 27-08-2012 18:00, Mayor que la Máxima 23.1 28-08-2012 00:00 25.7 -- 23.1 2014-12-12 16:01:00
2 2012-08-29 00:00:00 Temperatura 23.8 del 28-08-2012 18:00, Mayor que la Máxima 22.8 29-08-2012 00:00 23.8 -- 22.8 2014-12-12 16:01:00
2 2012-08-30 00:00:00 Temperatura 25.8 del 29-08-2012 18:00, Mayor que la Máxima 24.2 30-08-2012 00:00 25.8 -- 24.2 2014-12-12 16:01:00
2 2012-08-31 00:00:00 Temperatura 22.8 del 30-08-2012 18:00, Mayor que la Máxima 20.2 31-08-2012 00:00 22.8 -- 20.2 2014-12-12 16:06:00
2 2012-09-01 00:00:00 Temperatura 26.8 del 31-08-2012 18:00, Mayor que la Máxima 25.3 01-09-2012 00:00 26.8 -- 25.3 2014-12-12 16:06:00
2 2012-09-02 00:00:00 Temperatura 26.9 del 01-09-2012 18:00, Mayor que la Máxima 25.8 02-09-2012 00:00 26.9 -- 25.8 2014-12-12 17:59:00
2 2012-09-03 00:00:00 Temperatura 22.1 del 02-09-2012 18:00, Mayor que la Máxima 21.2 03-09-2012 00:00 22.1 -- 21.2 2014-12-12 17:59:00
2 2012-09-04 00:00:00 Temperatura 16.8 del 03-09-2012 18:00, Mayor que la Máxima 15.6 04-09-2012 00:00 16.8 -- 15.6 2014-12-12 17:59:00
2 2012-09-05 00:00:00 Temperatura 17.9 del 04-09-2012 18:00, Mayor que la Máxima 16.3 05-09-2012 00:00 17.9 -- 16.3 2014-12-12 17:59:00
2 2012-09-06 00:00:00 Temperatura 21.7 del 05-09-2012 18:00, Mayor que la Máxima 20.3 06-09-2012 00:00 21.7 -- 20.3 2014-12-12 18:00:00
2 2012-09-07 00:00:00 Temperatura 15.8 del 06-09-2012 18:00, Mayor que la Máxima 13.7 07-09-2012 00:00 15.8 -- 13.7 2014-12-12 18:00:00
2 2012-09-08 00:00:00 Temperatura 17.8 del 07-09-2012 18:00, Mayor que la Máxima 16.2 08-09-2012 00:00 17.8 -- 16.2 2014-12-12 18:00:00
2 2012-09-09 00:00:00 Temperatura 23.7 del 08-09-2012 18:00, Mayor que la Máxima 22.8 09-09-2012 00:00 23.7 -- 22.8 2014-12-12 18:00:00
2 2012-09-10 00:00:00 Temperatura 23.6 del 09-09-2012 18:00, Mayor que la Máxima 21.1 10-09-2012 00:00 23.6 -- 21.1 2014-12-12 18:00:00
2 2012-09-11 00:00:00 Temperatura 26.5 del 10-09-2012 18:00, Mayor que la Máxima 24.1 11-09-2012 00:00 26.5 -- 24.1 2014-12-12 18:00:00
2 2012-09-12 00:00:00 Temperatura 20.7 del 11-09-2012 18:00, Mayor que la Máxima 19.8 12-09-2012 00:00 20.7 -- 19.8 2014-12-12 18:00:00
2 2012-09-13 00:00:00 Temperatura 24.8 del 12-09-2012 18:00, Mayor que la Máxima 23.2 13-09-2012 00:00 24.8 -- 23.2 2014-12-12 18:00:00
2 2012-09-15 00:00:00 Temperatura 21.6 del 14-09-2012 18:00, Mayor que la Máxima 20.2 15-09-2012 00:00 21.6 -- 20.2 2014-12-12 18:00:00
2 2012-09-16 00:00:00 Temperatura 20.8 del 15-09-2012 18:00, Mayor que la Máxima 19.3 16-09-2012 00:00 20.8 -- 19.3 2014-12-12 18:00:00
2 2012-09-17 00:00:00 Temperatura 19.8 del 16-09-2012 18:00, Mayor que la Máxima 18.8 17-09-2012 00:00 19.8 -- 18.8 2014-12-12 18:00:00
2 2012-09-18 00:00:00 Temperatura 19.7 del 17-09-2012 18:00, Mayor que la Máxima 13.9 18-09-2012 00:00 19.7 -- 13.9 2014-12-12 19:02:00
2 2012-09-19 00:00:00 Temperatura 16.9 del 18-09-2012 18:00, Mayor que la Máxima 15.2 19-09-2012 00:00 16.9 -- 15.2 2014-12-12 19:01:00
2 2012-09-20 00:00:00 Temperatura 20.6 del 19-09-2012 18:00, Mayor que la Máxima 18.1 20-09-2012 00:00 20.6 -- 18.1 2014-12-12 19:01:00
2 2012-09-21 00:00:00 Temperatura 20.7 del 20-09-2012 18:00, Mayor que la Máxima 19.4 21-09-2012 00:00 20.7 -- 19.4 2014-12-12 19:01:00
2 2012-09-22 00:00:00 Temperatura 25.9 del 21-09-2012 18:00, Mayor que la Máxima 23.6 22-09-2012 00:00 25.9 -- 23.6 2014-12-12 19:01:00
2 2012-09-23 00:00:00 Temperatura 29.7 del 22-09-2012 18:00, Mayor que la Máxima 28.0 23-09-2012 00:00 29.7 -- 28.0 2014-12-12 19:01:00
2 2012-09-24 00:00:00 Temperatura 20.8 del 23-09-2012 18:00, Mayor que la Máxima 19.9 24-09-2012 00:00 20.8 -- 19.9 2014-12-12 19:01:00
2 2012-09-25 00:00:00 Temperatura 24.8 del 24-09-2012 18:00, Mayor que la Máxima 22.4 25-09-2012 00:00 24.8 -- 22.4 2014-12-12 19:01:00
2 2012-09-26 00:00:00 Temperatura 30.8 del 25-09-2012 18:00, Mayor que la Máxima 29.1 26-09-2012 00:00 30.8 -- 29.1 2014-12-12 19:01:00
2 2012-09-27 00:00:00 Temperatura 26.7 del 26-09-2012 18:00, Mayor que la Máxima 25.2 27-09-2012 00:00 26.7 -- 25.2 2014-12-12 19:01:00
2 2012-09-28 00:00:00 Temperatura 13.6 del 27-09-2012 18:00, Mayor que la Máxima 12.2 28-09-2012 00:00 13.6 -- 12.2 2014-12-12 19:02:00
2 2012-09-29 00:00:00 Temperatura 20.7 del 28-09-2012 18:00, Mayor que la Máxima 19.2 29-09-2012 00:00 20.7 -- 19.2 2014-12-12 19:02:00
2 2012-09-30 00:00:00 Temperatura 20.8 del 29-09-2012 18:00, Mayor que la Máxima 19.5 30-09-2012 00:00 20.8 -- 19.5 2014-12-12 19:02:00
2 2012-10-01 00:00:00 Temperatura 20.5 del 30-09-2012 18:00, Mayor que la Máxima 18.0 01-10-2012 00:00 20.5 -- 18.0 2014-12-12 19:02:00
2 2012-10-02 00:00:00 Temperatura 12.7 del 01-10-2012 18:00, Mayor que la Máxima 11.8 02-10-2012 00:00 12.7 -- 11.8 2014-12-12 19:19:00
2 2012-10-03 00:00:00 Temperatura 20.6 del 02-10-2012 18:00, Mayor que la Máxima 18.5 03-10-2012 00:00 20.6 -- 18.5 2014-12-12 19:19:00
2 2012-10-04 00:00:00 Temperatura 24.9 del 03-10-2012 18:00, Mayor que la Máxima 23.2 04-10-2012 00:00 24.9 -- 23.2 2014-12-12 19:19:00
2 2012-10-05 00:00:00 Temperatura 22.8 del 04-10-2012 18:00, Mayor que la Máxima 20.1 05-10-2012 00:00 22.8 -- 20.1 2014-12-12 19:20:00
2 2012-10-06 00:00:00 Temperatura 15.8 del 05-10-2012 18:00, Mayor que la Máxima 14.4 06-10-2012 00:00 15.8 -- 14.4 2014-12-12 19:20:00
2 2012-10-07 00:00:00 Temperatura 10.7 del 06-10-2012 18:00, Mayor que la Máxima 9.8 07-10-2012 00:00 10.7 -- 9.8 2014-12-12 19:20:00
2 2012-10-08 00:00:00 Temperatura 13.8 del 07-10-2012 18:00, Mayor que la Máxima 12.4 08-10-2012 00:00 13.8 -- 12.4 2014-12-15 15:24:00
2 2012-10-09 00:00:00 Temperatura 15.9 del 08-10-2012 18:00, Mayor que la Máxima 14.4 09-10-2012 00:00 15.9 -- 14.4 2014-12-15 15:24:00
2 2012-10-10 00:00:00 Temperatura 20.8 del 09-10-2012 18:00, Mayor que la Máxima 19.0 10-10-2012 00:00 20.8 -- 19.0 2014-12-15 15:24:00
2 2012-10-11 00:00:00 Temperatura 28.8 del 10-10-2012 18:00, Mayor que la Máxima 26.1 11-10-2012 00:00 28.8 -- 26.1 2014-12-15 15:25:00
2 2012-10-12 00:00:00 Temperatura 27.2 del 11-10-2012 18:00, Mayor que la Máxima 23.2 12-10-2012 00:00 27.2 -- 23.2 2014-12-15 15:25:00
2 2012-10-13 00:00:00 Temperatura 20.7 del 12-10-2012 18:00, Mayor que la Máxima 18.2 13-10-2012 00:00 20.7 -- 18.2 2014-12-15 15:25:00
2 2012-10-14 00:00:00 Temperatura 20.9 del 13-10-2012 18:00, Mayor que la Máxima 19.6 14-10-2012 00:00 20.9 -- 19.6 2014-12-15 15:25:00
2 2012-10-15 00:00:00 Temperatura 20.9 del 14-10-2012 18:00, Mayor que la Máxima 18.2 15-10-2012 00:00 20.9 -- 18.2 2014-12-15 15:25:00
2 2012-10-16 00:00:00 Temperatura 26.1 del 15-10-2012 18:00, Mayor que la Máxima 15.0 16-10-2012 00:00 26.1 -- 15.0 2014-12-15 15:25:00
2 2012-10-17 00:00:00 Temperatura 30.4 del 16-10-2012 18:00, Mayor que la Máxima 28.2 17-10-2012 00:00 30.4 -- 28.2 2014-12-15 15:25:00
2 2012-10-18 00:00:00 Temperatura 26.8 del 17-10-2012 18:00, Mayor que la Máxima 25.4 18-10-2012 00:00 26.8 -- 25.4 2014-12-15 15:25:00
2 2012-10-19 00:00:00 Temperatura 25.2 del 18-10-2012 18:00, Mayor que la Máxima 22.2 19-10-2012 00:00 25.2 -- 22.2 2014-12-15 15:25:00
2 2012-10-20 00:00:00 Temperatura 19.7 del 19-10-2012 18:00, Mayor que la Máxima 17.5 20-10-2012 00:00 19.7 -- 17.5 2014-12-15 15:26:00
2 2012-10-21 00:00:00 Temperatura 20.7 del 20-10-2012 18:00, Mayor que la Máxima 19.2 21-10-2012 00:00 20.7 -- 19.2 2014-12-15 15:26:00
2 2012-10-22 00:00:00 Temperatura 17.9 del 21-10-2012 18:00, Mayor que la Máxima 15.6 22-10-2012 00:00 17.9 -- 15.6 2014-12-15 15:26:00
2 2012-10-23 00:00:00 Temperatura 20.8 del 22-10-2012 18:00, Mayor que la Máxima 19.2 23-10-2012 00:00 20.8 -- 19.2 2014-12-15 15:26:00
2 2012-10-24 00:00:00 Temperatura 24.7 del 23-10-2012 18:00, Mayor que la Máxima 22.6 24-10-2012 00:00 24.7 -- 22.6 2014-12-15 15:26:00
2 2012-10-25 00:00:00 Temperatura 24.6 del 24-10-2012 18:00, Mayor que la Máxima 22.2 25-10-2012 00:00 24.6 -- 22.2 2014-12-15 15:26:00
2 2012-10-26 00:00:00 Temperatura 25.7 del 25-10-2012 18:00, Mayor que la Máxima 24.1 26-10-2012 00:00 25.7 -- 24.1 2014-12-15 15:26:00
2 2012-10-27 00:00:00 Temperatura 25.6 del 26-10-2012 18:00, Mayor que la Máxima 23.6 27-10-2012 00:00 25.6 -- 23.6 2014-12-15 15:27:00
2 2012-10-28 00:00:00 Temperatura 25.7 del 27-10-2012 18:00, Mayor que la Máxima 24.2 28-10-2012 00:00 25.7 -- 24.2 2014-12-15 15:27:00
2 2012-10-29 00:00:00 Temperatura 30.7 del 28-10-2012 18:00, Mayor que la Máxima 28.1 29-10-2012 00:00 30.7 -- 28.1 2014-12-16 14:24:00
2 2012-10-30 00:00:00 Temperatura 29.6 del 29-10-2012 18:00, Mayor que la Máxima 27.2 30-10-2012 00:00 29.6 -- 27.2 2014-12-16 14:20:00
2 2012-10-31 00:00:00 Temperatura 24.8 del 30-10-2012 18:00, Mayor que la Máxima 23.1 31-10-2012 00:00 24.8 -- 23.1 2014-12-16 14:20:00
2 2012-11-01 00:00:00 Temperatura 25.3 del 31-10-2012 18:00, Mayor que la Máxima 24.8 01-11-2012 00:00 25.3 -- 24.8 2014-12-16 14:20:00
2 2012-11-02 00:00:00 Temperatura 28.4 del 01-11-2012 18:00, Mayor que la Máxima 26.3 02-11-2012 00:00 28.4 -- 26.3 2014-12-15 20:34:00
2 2012-11-03 00:00:00 Temperatura 29.7 del 02-11-2012 18:00, Mayor que la Máxima 28.1 03-11-2012 00:00 29.7 -- 28.1 2014-12-17 12:31:00
2 2012-11-04 00:00:00 Temperatura 27.4 del 03-11-2012 18:00, Mayor que la Máxima 27.0 04-11-2012 00:00 27.4 -- 27.0 2014-12-17 12:31:00
2 2012-11-05 00:00:00 Temperatura 30.4 del 04-11-2012 18:00, Mayor que la Máxima 28.4 05-11-2012 00:00 30.4 -- 28.4 2014-12-17 12:31:00
2 2012-11-06 00:00:00 Temperatura 31.8 del 05-11-2012 18:00, Mayor que la Máxima 30.1 06-11-2012 00:00 31.8 -- 30.1 2014-12-17 12:31:00
2 2012-11-07 00:00:00 Temperatura 30.8 del 06-11-2012 18:00, Mayor que la Máxima 29.2 07-11-2012 00:00 30.8 -- 29.2 2014-12-17 12:31:00
2 2012-11-08 00:00:00 Temperatura 28.4 del 07-11-2012 18:00, Mayor que la Máxima 26.2 08-11-2012 00:00 28.4 -- 26.2 2014-12-17 12:31:00
2 2012-11-09 00:00:00 Temperatura 23.7 del 08-11-2012 18:00, Mayor que la Máxima 21.3 09-11-2012 00:00 23.7 -- 21.3 2014-12-17 12:31:00
2 2012-11-10 00:00:00 Temperatura 22.8 del 09-11-2012 18:00, Mayor que la Máxima 20.5 10-11-2012 00:00 22.8 -- 20.5 2014-12-17 12:31:00
2 2012-11-11 00:00:00 Temperatura 23.7 del 10-11-2012 18:00, Mayor que la Máxima 22.2 11-11-2012 00:00 23.7 -- 22.2 2014-12-17 13:43:00
2 2012-11-12 00:00:00 Temperatura 30.7 del 11-11-2012 18:00, Mayor que la Máxima 28.5 12-11-2012 00:00 30.7 -- 28.5 2014-12-17 13:43:00
2 2012-11-13 00:00:00 Temperatura 30.7 del 12-11-2012 18:00, Mayor que la Máxima 28.2 13-11-2012 00:00 30.7 -- 28.2 2014-12-17 13:43:00
2 2012-11-14 00:00:00 Temperatura 28.8 del 13-11-2012 18:00, Mayor que la Máxima 27.0 14-11-2012 00:00 28.8 -- 27.0 2014-12-17 13:43:00
2 2012-11-15 00:00:00 Temperatura 28.7 del 14-11-2012 18:00, Mayor que la Máxima 26.2 15-11-2012 00:00 28.7 -- 26.2 2014-12-17 13:43:00
2 2012-11-16 00:00:00 Temperatura 27.8 del 15-11-2012 18:00, Mayor que la Máxima 25.8 16-11-2012 00:00 27.8 -- 25.8 2014-12-17 13:43:00
2 2012-11-17 00:00:00 Temperatura 24.7 del 16-11-2012 18:00, Mayor que la Máxima 22.6 17-11-2012 00:00 24.7 -- 22.6 2014-12-17 13:43:00
2 2012-11-18 00:00:00 Temperatura 28.9 del 17-11-2012 18:00, Mayor que la Máxima 27.2 18-11-2012 00:00 28.9 -- 27.2 2014-12-17 13:43:00
2 2012-11-19 00:00:00 Temperatura 30.7 del 18-11-2012 18:00, Mayor que la Máxima 24.8 19-11-2012 00:00 30.7 -- 24.8 2014-12-17 13:43:00
2 2012-11-20 00:00:00 Temperatura 30.3 del 19-11-2012 18:00, Mayor que la Máxima 28.4 20-11-2012 00:00 30.3 -- 28.4 2014-12-17 13:43:00
2 2012-11-21 00:00:00 Temperatura 29.6 del 20-11-2012 18:00, Mayor que la Máxima 27.4 21-11-2012 00:00 29.6 -- 27.4 2014-12-17 13:43:00
2 2012-11-22 00:00:00 Temperatura 29.5 del 21-11-2012 18:00, Mayor que la Máxima 27.8 22-11-2012 00:00 29.5 -- 27.8 2014-12-17 13:43:00
2 2012-11-23 00:00:00 Temperatura 24.8 del 22-11-2012 18:00, Mayor que la Máxima 23.6 23-11-2012 00:00 24.8 -- 23.6 2014-12-17 13:43:00
2 2012-11-24 00:00:00 Temperatura 25.9 del 23-11-2012 18:00, Mayor que la Máxima 24.6 24-11-2012 00:00 25.9 -- 24.6 2014-12-17 13:43:00
2 2012-11-25 00:00:00 Temperatura 30.6 del 24-11-2012 18:00, Mayor que la Máxima 28.1 25-11-2012 00:00 30.6 -- 28.1 2014-12-17 13:43:00
2 2012-11-26 00:00:00 Temperatura 31.7 del 25-11-2012 18:00, Mayor que la Máxima 29.3 26-11-2012 00:00 31.7 -- 29.3 2014-12-17 13:43:00
2 2012-11-27 00:00:00 Temperatura 31.6 del 26-11-2012 18:00, Mayor que la Máxima 29.2 27-11-2012 00:00 31.6 -- 29.2 2014-12-17 13:43:00
2 2012-11-28 00:00:00 Temperatura 32.4 del 27-11-2012 18:00, Mayor que la Máxima 30.8 28-11-2012 00:00 32.4 -- 30.8 2014-12-17 13:43:00
2 2012-11-29 00:00:00 Temperatura 23.8 del 28-11-2012 18:00, Mayor que la Máxima 21.2 29-11-2012 00:00 23.8 -- 21.2 2014-12-17 13:52:00
2 2012-12-01 00:00:00 Temperatura 20.7 del 30-11-2012 18:00, Mayor que la Máxima 20.2 01-12-2012 00:00 20.7 -- 20.2 2014-12-17 13:54:00
2 2012-12-02 00:00:00 Temperatura 30.7 del 01-12-2012 18:00, Mayor que la Máxima 28.2 02-12-2012 00:00 30.7 -- 28.2 2014-12-17 14:45:00
2 2012-12-03 00:00:00 Temperatura 30.8 del 02-12-2012 18:00, Mayor que la Máxima 29.1 03-12-2012 00:00 30.8 -- 29.1 2014-12-17 14:45:00
2 2012-12-04 00:00:00 Temperatura 30.4 del 03-12-2012 18:00, Mayor que la Máxima 29.9 04-12-2012 00:00 30.4 -- 29.9 2014-12-17 14:45:00
2 2012-12-05 00:00:00 Temperatura 30.9 del 04-12-2012 18:00, Mayor que la Máxima 29.2 05-12-2012 00:00 30.9 -- 29.2 2014-12-17 14:45:00
2 2012-12-06 00:00:00 Temperatura 30.6 del 05-12-2012 18:00, Mayor que la Máxima 28.5 06-12-2012 00:00 30.6 -- 28.5 2014-12-17 14:45:00
2 2012-12-07 00:00:00 Temperatura 26.8 del 06-12-2012 18:00, Mayor que la Máxima 24.6 07-12-2012 00:00 26.8 -- 24.6 2014-12-17 14:45:00
2 2012-12-08 00:00:00 Temperatura 28.4 del 07-12-2012 18:00, Mayor que la Máxima 27.6 08-12-2012 00:00 28.4 -- 27.6 2014-12-17 14:45:00
2 2012-12-09 00:00:00 Temperatura 32.8 del 08-12-2012 18:00, Mayor que la Máxima 31.2 09-12-2012 00:00 32.8 -- 31.2 2014-12-17 14:45:00
2 2012-12-10 00:00:00 Temperatura 33.6 del 09-12-2012 18:00, Mayor que la Máxima 32.3 10-12-2012 00:00 33.6 -- 32.3 2014-12-17 14:45:00
2 2012-12-11 00:00:00 Temperatura 29.9 del 10-12-2012 18:00, Mayor que la Máxima 27.4 11-12-2012 00:00 29.9 -- 27.4 2014-12-17 14:45:00
2 2012-12-12 00:00:00 Temperatura 30.4 del 11-12-2012 18:00, Mayor que la Máxima 28.1 12-12-2012 00:00 30.4 -- 28.1 2014-12-17 14:45:00
2 2012-12-13 00:00:00 Temperatura 30.9 del 12-12-2012 18:00, Mayor que la Máxima 28.4 13-12-2012 00:00 30.9 -- 28.4 2014-12-17 14:45:00
2 2012-12-14 00:00:00 Temperatura 31.6 del 13-12-2012 18:00, Mayor que la Máxima 29.6 14-12-2012 00:00 31.6 -- 29.6 2014-12-17 14:45:00
2 2012-12-15 00:00:00 Temperatura 30.8 del 14-12-2012 18:00, Mayor que la Máxima 28.8 15-12-2012 00:00 30.8 -- 28.8 2014-12-17 14:45:00
2 2012-12-16 00:00:00 Temperatura 30.7 del 15-12-2012 18:00, Mayor que la Máxima 28.2 16-12-2012 00:00 30.7 -- 28.2 2014-12-17 14:45:00
2 2012-12-17 00:00:00 Temperatura 30.8 del 16-12-2012 18:00, Mayor que la Máxima 29.2 17-12-2012 00:00 30.8 -- 29.2 2014-12-17 15:04:00
2 2012-12-18 00:00:00 Temperatura 30.7 del 17-12-2012 18:00, Mayor que la Máxima 29.4 18-12-2012 00:00 30.7 -- 29.4 2014-12-17 15:04:00
2 2012-12-19 00:00:00 Temperatura 27.7 del 18-12-2012 18:00, Mayor que la Máxima 25.2 19-12-2012 00:00 27.7 -- 25.2 2014-12-17 15:04:00
2 2012-12-20 00:00:00 Temperatura 14.6 del 19-12-2012 18:00, Mayor que la Máxima 12.4 20-12-2012 00:00 14.6 -- 12.4 2014-12-17 15:04:00
2 2012-12-21 00:00:00 Temperatura 20.7 del 20-12-2012 18:00, Mayor que la Máxima 18.4 21-12-2012 00:00 20.7 -- 18.4 2014-12-17 15:04:00
2 2012-12-22 00:00:00 Temperatura 30.8 del 21-12-2012 18:00, Mayor que la Máxima 28.2 22-12-2012 00:00 30.8 -- 28.2 2014-12-17 15:04:00
2 2012-12-23 00:00:00 Temperatura 31.7 del 22-12-2012 18:00, Mayor que la Máxima 30.1 23-12-2012 00:00 31.7 -- 30.1 2014-12-17 15:04:00
2 2012-12-24 00:00:00 Temperatura 29.6 del 23-12-2012 18:00, Mayor que la Máxima 27.2 24-12-2012 00:00 29.6 -- 27.2 2014-12-17 15:04:00
2 2012-12-25 00:00:00 Temperatura 29.7 del 24-12-2012 18:00, Mayor que la Máxima 28.7 25-12-2012 00:00 29.7 -- 28.7 2014-12-17 15:21:00
2 2012-12-26 00:00:00 Temperatura 25.8 del 25-12-2012 18:00, Mayor que la Máxima 24.8 26-12-2012 00:00 25.8 -- 24.8 2014-12-17 15:21:00
2 2012-12-27 00:00:00 Temperatura 28.4 del 26-12-2012 18:00, Mayor que la Máxima 27.5 27-12-2012 00:00 28.4 -- 27.5 2014-12-17 15:22:00
2 2012-12-28 00:00:00 Temperatura 29.7 del 27-12-2012 18:00, Mayor que la Máxima 28.9 28-12-2012 00:00 29.7 -- 28.9 2014-12-17 15:22:00
2 2012-12-29 00:00:00 Temperatura 30.6 del 28-12-2012 18:00, Mayor que la Máxima 29.7 29-12-2012 00:00 30.6 -- 29.7 2014-12-17 15:22:00
2 2012-12-30 00:00:00 Temperatura 31.8 del 29-12-2012 18:00, Mayor que la Máxima 30.3 30-12-2012 00:00 31.8 -- 30.3 2014-12-17 15:22:00
2 2012-12-31 00:00:00 Temperatura 30.8 del 30-12-2012 18:00, Mayor que la Máxima 29.5 31-12-2012 00:00 30.8 -- 29.5 2014-12-17 15:22:00
2 2013-01-01 00:00:00 Temperatura 30.6 del 31-12-2012 18:00, Mayor que la Máxima 29.8 01-01-2013 00:00 30.6 -- 29.8 2014-12-17 15:22:00
Errores del Nivel 483
Informe generado el 05-03-2024 10:10
Requerimiento: RE6001